<?xml version="1.0" encoding="UTF-8" standalone="no" ?>
<gpx xmlns="http://www.topografix.com/GPX/1/1" xmlns:xsi="http://www.w3.org/2001/XMLSchema-instance" xsi:schemaLocation="http://www.topografix.com/GPX/1/1 http://www.topografix.com/GPX/1/1/gpx.xsd" version="1.1" creator="VisuGPX - https://www.visugpx.com">
  <metadata>
    <name>randonnée roche du MARAIS</name>
    <desc><![CDATA[Roz Armor- roche du Marais.pointe du Port.
]]></desc>
  </metadata>
  <trk>
    <name><![CDATA[2018-06-10T12:49:48Z_Dim matin_to_Accueil ]]></name>
    <trkseg>
      <trkpt lat="48.65171" lon="-2.43953">
        <ele>52.686648409814</ele>
        <time>2018-06-10T09:09:49Z</time>
      </trkpt>
      <trkpt lat="48.65178" lon="-2.43943">
        <ele>62.657100216829</ele>
        <time>2018-06-10T09:13:02Z</time>
      </trkpt>
      <trkpt lat="48.65187" lon="-2.43929">
        <ele>62.312539967793</ele>
        <time>2018-06-10T09:13:15Z</time>
      </trkpt>
      <trkpt lat="48.65194" lon="-2.43919">
        <ele>61.393356167749</ele>
        <time>2018-06-10T09:13:27Z</time>
      </trkpt>
      <trkpt lat="48.65201" lon="-2.43905">
        <ele>60.165066193965</ele>
        <time>2018-06-10T09:13:37Z</time>
      </trkpt>
      <trkpt lat="48.65206" lon="-2.43894">
        <ele>58.476626839154</ele>
        <time>2018-06-10T09:13:43Z</time>
      </trkpt>
      <trkpt lat="48.65213" lon="-2.43883">
        <ele>57.520662753754</ele>
        <time>2018-06-10T09:13:52Z</time>
      </trkpt>
      <trkpt lat="48.65219" lon="-2.43872">
        <ele>57.492824340478</ele>
        <time>2018-06-10T09:14:00Z</time>
      </trkpt>
      <trkpt lat="48.65225" lon="-2.4386">
        <ele>57.631678307975</ele>
        <time>2018-06-10T09:14:09Z</time>
      </trkpt>
      <trkpt lat="48.65233" lon="-2.4385">
        <ele>57.863089640049</ele>
        <time>2018-06-10T09:14:18Z</time>
      </trkpt>
      <trkpt lat="48.65241" lon="-2.43841">
        <ele>57.969173187255</ele>
        <time>2018-06-10T09:14:28Z</time>
      </trkpt>
      <trkpt lat="48.65247" lon="-2.43825">
        <ele>56.911829842374</ele>
        <time>2018-06-10T09:14:37Z</time>
      </trkpt>
      <trkpt lat="48.65249" lon="-2.43809">
        <ele>54.918417737232</ele>
        <time>2018-06-10T09:14:46Z</time>
      </trkpt>
      <trkpt lat="48.6525" lon="-2.43796">
        <ele>54.513316041187</ele>
        <time>2018-06-10T09:14:55Z</time>
      </trkpt>
      <trkpt lat="48.65249" lon="-2.43781">
        <ele>54.425164795239</ele>
        <time>2018-06-10T09:15:03Z</time>
      </trkpt>
      <trkpt lat="48.65247" lon="-2.43764">
        <ele>54.994037612177</ele>
        <time>2018-06-10T09:15:11Z</time>
      </trkpt>
      <trkpt lat="48.65246" lon="-2.43748">
        <ele>55.313900571015</ele>
        <time>2018-06-10T09:15:20Z</time>
      </trkpt>
      <trkpt lat="48.65244" lon="-2.43733">
        <ele>57.507215040926</ele>
        <time>2018-06-10T09:15:30Z</time>
      </trkpt>
      <trkpt lat="48.6524" lon="-2.43717">
        <ele>57.016413591989</ele>
        <time>2018-06-10T09:15:41Z</time>
      </trkpt>
      <trkpt lat="48.65236" lon="-2.43702">
        <ele>55.581539076461</ele>
        <time>2018-06-10T09:15:48Z</time>
      </trkpt>
      <trkpt lat="48.65232" lon="-2.4369">
        <ele>55.186026946236</ele>
        <time>2018-06-10T09:15:57Z</time>
      </trkpt>
      <trkpt lat="48.65228" lon="-2.43676">
        <ele>54.946217936851</ele>
        <time>2018-06-10T09:16:04Z</time>
      </trkpt>
      <trkpt lat="48.65222" lon="-2.43664">
        <ele>54.911943732414</ele>
        <time>2018-06-10T09:16:13Z</time>
      </trkpt>
      <trkpt lat="48.65216" lon="-2.43654">
        <ele>55.484097986697</ele>
        <time>2018-06-10T09:16:21Z</time>
      </trkpt>
      <trkpt lat="48.65209" lon="-2.43641">
        <ele>58.024287165045</ele>
        <time>2018-06-10T09:16:30Z</time>
      </trkpt>
      <trkpt lat="48.65202" lon="-2.4363">
        <ele>58.445303970616</ele>
        <time>2018-06-10T09:16:43Z</time>
      </trkpt>
      <trkpt lat="48.65197" lon="-2.43619">
        <ele>58.898833074261</ele>
        <time>2018-06-10T09:16:50Z</time>
      </trkpt>
      <trkpt lat="48.65191" lon="-2.43608">
        <ele>58.476659517444</ele>
        <time>2018-06-10T09:16:57Z</time>
      </trkpt>
      <trkpt lat="48.6518" lon="-2.43592">
        <ele>57.988162322091</ele>
        <time>2018-06-10T09:17:10Z</time>
      </trkpt>
      <trkpt lat="48.65173" lon="-2.43582">
        <ele>57.898073529629</ele>
        <time>2018-06-10T09:17:20Z</time>
      </trkpt>
      <trkpt lat="48.65166" lon="-2.43571">
        <ele>58.973265723057</ele>
        <time>2018-06-10T09:17:28Z</time>
      </trkpt>
      <trkpt lat="48.65158" lon="-2.43561">
        <ele>59.414287935659</ele>
        <time>2018-06-10T09:17:42Z</time>
      </trkpt>
      <trkpt lat="48.65152" lon="-2.4355">
        <ele>59.551966787851</ele>
        <time>2018-06-10T09:17:48Z</time>
      </trkpt>
      <trkpt lat="48.65145" lon="-2.43539">
        <ele>60.045890201969</ele>
        <time>2018-06-10T09:17:57Z</time>
      </trkpt>
      <trkpt lat="48.6514" lon="-2.43527">
        <ele>61.232614072066</ele>
        <time>2018-06-10T09:18:06Z</time>
      </trkpt>
      <trkpt lat="48.65133" lon="-2.43516">
        <ele>61.54495463353</ele>
        <time>2018-06-10T09:18:14Z</time>
      </trkpt>
      <trkpt lat="48.65129" lon="-2.43503">
        <ele>58.66875734234</ele>
        <time>2018-06-10T09:20:14Z</time>
      </trkpt>
      <trkpt lat="48.65122" lon="-2.43493">
        <ele>57.715030846066</ele>
        <time>2018-06-10T09:20:24Z</time>
      </trkpt>
      <trkpt lat="48.65115" lon="-2.43484">
        <ele>56.584832835219</ele>
        <time>2018-06-10T09:20:31Z</time>
      </trkpt>
      <trkpt lat="48.65108" lon="-2.43472">
        <ele>57.088010654405</ele>
        <time>2018-06-10T09:20:39Z</time>
      </trkpt>
      <trkpt lat="48.651" lon="-2.43463">
        <ele>57.76187589013</ele>
        <time>2018-06-10T09:20:51Z</time>
      </trkpt>
      <trkpt lat="48.6509" lon="-2.43449">
        <ele>57.849251460576</ele>
        <time>2018-06-10T09:21:05Z</time>
      </trkpt>
      <trkpt lat="48.65084" lon="-2.43437">
        <ele>58.164202005638</ele>
        <time>2018-06-10T09:21:17Z</time>
      </trkpt>
      <trkpt lat="48.65077" lon="-2.43427">
        <ele>58.82778707774</ele>
        <time>2018-06-10T09:21:28Z</time>
      </trkpt>
      <trkpt lat="48.65072" lon="-2.43414">
        <ele>60.305271297284</ele>
        <time>2018-06-10T09:21:39Z</time>
      </trkpt>
      <trkpt lat="48.65067" lon="-2.43402">
        <ele>60.738670745795</ele>
        <time>2018-06-10T09:21:46Z</time>
      </trkpt>
      <trkpt lat="48.6506" lon="-2.43385">
        <ele>59.686210741869</ele>
        <time>2018-06-10T09:21:57Z</time>
      </trkpt>
      <trkpt lat="48.65053" lon="-2.43373">
        <ele>58.115233749504</ele>
        <time>2018-06-10T09:22:04Z</time>
      </trkpt>
      <trkpt lat="48.65047" lon="-2.43362">
        <ele>58.710530677259</ele>
        <time>2018-06-10T09:22:13Z</time>
      </trkpt>
      <trkpt lat="48.65042" lon="-2.43351">
        <ele>58.741493592385</ele>
        <time>2018-06-10T09:22:25Z</time>
      </trkpt>
      <trkpt lat="48.65035" lon="-2.43338">
        <ele>59.453287864521</ele>
        <time>2018-06-10T09:22:36Z</time>
      </trkpt>
      <trkpt lat="48.65029" lon="-2.43328">
        <ele>60.072376152719</ele>
        <time>2018-06-10T09:22:45Z</time>
      </trkpt>
      <trkpt lat="48.65022" lon="-2.43318">
        <ele>61.314757495813</ele>
        <time>2018-06-10T09:22:54Z</time>
      </trkpt>
      <trkpt lat="48.65014" lon="-2.43308">
        <ele>60.362916480916</ele>
        <time>2018-06-10T09:23:05Z</time>
      </trkpt>
      <trkpt lat="48.65008" lon="-2.43297">
        <ele>61.233688680864</ele>
        <time>2018-06-10T09:23:25Z</time>
      </trkpt>
      <trkpt lat="48.65002" lon="-2.43286">
        <ele>59.775220030033</ele>
        <time>2018-06-10T09:23:57Z</time>
      </trkpt>
      <trkpt lat="48.64995" lon="-2.43274">
        <ele>60.464673572659</ele>
        <time>2018-06-10T09:24:07Z</time>
      </trkpt>
      <trkpt lat="48.64986" lon="-2.43265">
        <ele>59.95163827187</ele>
        <time>2018-06-10T09:24:28Z</time>
      </trkpt>
      <trkpt lat="48.6498" lon="-2.43256">
        <ele>59.23518889859</ele>
        <time>2018-06-10T09:24:37Z</time>
      </trkpt>
      <trkpt lat="48.64973" lon="-2.43246">
        <ele>61.649941757949</ele>
        <time>2018-06-10T09:24:51Z</time>
      </trkpt>
      <trkpt lat="48.64966" lon="-2.43237">
        <ele>68.306636364594</ele>
        <time>2018-06-10T09:25:23Z</time>
      </trkpt>
      <trkpt lat="48.64958" lon="-2.4323">
        <ele>68.43714080215</ele>
        <time>2018-06-10T09:25:36Z</time>
      </trkpt>
      <trkpt lat="48.6495" lon="-2.43222">
        <ele>67.26813524202</ele>
        <time>2018-06-10T09:25:45Z</time>
      </trkpt>
      <trkpt lat="48.64946" lon="-2.4321">
        <ele>66.269918703551</ele>
        <time>2018-06-10T09:25:55Z</time>
      </trkpt>
      <trkpt lat="48.64941" lon="-2.43199">
        <ele>63.825823637408</ele>
        <time>2018-06-10T09:26:07Z</time>
      </trkpt>
      <trkpt lat="48.64934" lon="-2.43184">
        <ele>66.377311322509</ele>
        <time>2018-06-10T09:26:19Z</time>
      </trkpt>
      <trkpt lat="48.64926" lon="-2.43178">
        <ele>67.487860564163</ele>
        <time>2018-06-10T09:26:28Z</time>
      </trkpt>
      <trkpt lat="48.64919" lon="-2.4317">
        <ele>67.350975153312</ele>
        <time>2018-06-10T09:26:32Z</time>
      </trkpt>
      <trkpt lat="48.64913" lon="-2.4316">
        <ele>69.173890933488</ele>
        <time>2018-06-10T09:26:43Z</time>
      </trkpt>
      <trkpt lat="48.64908" lon="-2.43149">
        <ele>70.584319324398</ele>
        <time>2018-06-10T09:26:52Z</time>
      </trkpt>
      <trkpt lat="48.64907" lon="-2.43135">
        <ele>63.970462774704</ele>
        <time>2018-06-10T09:27:32Z</time>
      </trkpt>
      <trkpt lat="48.64916" lon="-2.43125">
        <ele>63.368392166792</ele>
        <time>2018-06-10T09:27:42Z</time>
      </trkpt>
      <trkpt lat="48.64919" lon="-2.43112">
        <ele>60.532025581487</ele>
        <time>2018-06-10T09:27:52Z</time>
      </trkpt>
      <trkpt lat="48.64919" lon="-2.43097">
        <ele>59.766615439385</ele>
        <time>2018-06-10T09:28:06Z</time>
      </trkpt>
      <trkpt lat="48.64924" lon="-2.43086">
        <ele>55.713876607158</ele>
        <time>2018-06-10T09:31:54Z</time>
      </trkpt>
      <trkpt lat="48.64917" lon="-2.43074">
        <ele>52.542341379622</ele>
        <time>2018-06-10T09:36:38Z</time>
      </trkpt>
      <trkpt lat="48.64911" lon="-2.43065">
        <ele>51.922655354809</ele>
        <time>2018-06-10T09:36:46Z</time>
      </trkpt>
      <trkpt lat="48.64909" lon="-2.43051">
        <ele>51.810111474647</ele>
        <time>2018-06-10T09:36:53Z</time>
      </trkpt>
      <trkpt lat="48.64907" lon="-2.43037">
        <ele>52.31266785022</ele>
        <time>2018-06-10T09:37:03Z</time>
      </trkpt>
      <trkpt lat="48.64904" lon="-2.43023">
        <ele>53.181585662643</ele>
        <time>2018-06-10T09:37:13Z</time>
      </trkpt>
      <trkpt lat="48.64903" lon="-2.43008">
        <ele>54.62781223783</ele>
        <time>2018-06-10T09:37:24Z</time>
      </trkpt>
      <trkpt lat="48.64899" lon="-2.42989">
        <ele>55.971531633082</ele>
        <time>2018-06-10T09:37:36Z</time>
      </trkpt>
      <trkpt lat="48.64897" lon="-2.42975">
        <ele>56.945849252145</ele>
        <time>2018-06-10T09:37:45Z</time>
      </trkpt>
      <trkpt lat="48.64894" lon="-2.42962">
        <ele>57.064294430125</ele>
        <time>2018-06-10T09:37:51Z</time>
      </trkpt>
      <trkpt lat="48.64891" lon="-2.42947">
        <ele>58.104390363204</ele>
        <time>2018-06-10T09:38:03Z</time>
      </trkpt>
      <trkpt lat="48.64889" lon="-2.42929">
        <ele>56.81662995436</ele>
        <time>2018-06-10T09:38:11Z</time>
      </trkpt>
      <trkpt lat="48.64886" lon="-2.42916">
        <ele>54.766362333024</ele>
        <time>2018-06-10T09:38:18Z</time>
      </trkpt>
      <trkpt lat="48.64883" lon="-2.42901">
        <ele>54.391760150633</ele>
        <time>2018-06-10T09:38:28Z</time>
      </trkpt>
      <trkpt lat="48.64879" lon="-2.42886">
        <ele>54.080060068631</ele>
        <time>2018-06-10T09:38:37Z</time>
      </trkpt>
      <trkpt lat="48.64876" lon="-2.42872">
        <ele>52.927534065836</ele>
        <time>2018-06-10T09:38:49Z</time>
      </trkpt>
      <trkpt lat="48.64874" lon="-2.42857">
        <ele>53.389922425392</ele>
        <time>2018-06-10T09:39:02Z</time>
      </trkpt>
      <trkpt lat="48.64873" lon="-2.42842">
        <ele>54.103471225733</ele>
        <time>2018-06-10T09:39:10Z</time>
      </trkpt>
      <trkpt lat="48.64871" lon="-2.42828">
        <ele>54.943300483044</ele>
        <time>2018-06-10T09:39:18Z</time>
      </trkpt>
      <trkpt lat="48.64868" lon="-2.42813">
        <ele>55.853196317109</ele>
        <time>2018-06-10T09:39:29Z</time>
      </trkpt>
      <trkpt lat="48.64863" lon="-2.42801">
        <ele>56.685730044005</ele>
        <time>2018-06-10T09:39:37Z</time>
      </trkpt>
      <trkpt lat="48.64857" lon="-2.42791">
        <ele>56.883464689567</ele>
        <time>2018-06-10T09:39:46Z</time>
      </trkpt>
      <trkpt lat="48.64849" lon="-2.42782">
        <ele>56.132850011746</ele>
        <time>2018-06-10T09:39:53Z</time>
      </trkpt>
      <trkpt lat="48.64842" lon="-2.4277">
        <ele>55.583667961038</ele>
        <time>2018-06-10T09:40:02Z</time>
      </trkpt>
      <trkpt lat="48.64836" lon="-2.42758">
        <ele>55.229314112823</ele>
        <time>2018-06-10T09:40:12Z</time>
      </trkpt>
      <trkpt lat="48.64832" lon="-2.42743">
        <ele>55.609584479372</ele>
        <time>2018-06-10T09:40:19Z</time>
      </trkpt>
      <trkpt lat="48.64828" lon="-2.4273">
        <ele>55.205375466997</ele>
        <time>2018-06-10T09:40:27Z</time>
      </trkpt>
      <trkpt lat="48.64828" lon="-2.42717">
        <ele>55.533389280488</ele>
        <time>2018-06-10T09:40:36Z</time>
      </trkpt>
      <trkpt lat="48.64835" lon="-2.42706">
        <ele>55.937125817169</ele>
        <time>2018-06-10T09:40:43Z</time>
      </trkpt>
      <trkpt lat="48.64844" lon="-2.42702">
        <ele>56.737766197728</ele>
        <time>2018-06-10T09:40:52Z</time>
      </trkpt>
      <trkpt lat="48.64843" lon="-2.42688">
        <ele>55.47577759854</ele>
        <time>2018-06-10T09:41:02Z</time>
      </trkpt>
      <trkpt lat="48.64836" lon="-2.42675">
        <ele>55.391965878569</ele>
        <time>2018-06-10T09:41:12Z</time>
      </trkpt>
      <trkpt lat="48.64833" lon="-2.42662">
        <ele>55.10511326414</ele>
        <time>2018-06-10T09:41:18Z</time>
      </trkpt>
      <trkpt lat="48.64833" lon="-2.42647">
        <ele>55.539756808595</ele>
        <time>2018-06-10T09:41:28Z</time>
      </trkpt>
      <trkpt lat="48.64834" lon="-2.42632">
        <ele>56.033400877107</ele>
        <time>2018-06-10T09:41:38Z</time>
      </trkpt>
      <trkpt lat="48.64832" lon="-2.42617">
        <ele>57.144399208811</ele>
        <time>2018-06-10T09:41:48Z</time>
      </trkpt>
      <trkpt lat="48.64828" lon="-2.42603">
        <ele>57.911459034825</ele>
        <time>2018-06-10T09:41:58Z</time>
      </trkpt>
      <trkpt lat="48.64827" lon="-2.42588">
        <ele>57.631180807245</ele>
        <time>2018-06-10T09:42:06Z</time>
      </trkpt>
      <trkpt lat="48.64825" lon="-2.42571">
        <ele>57.345507631988</ele>
        <time>2018-06-10T09:42:18Z</time>
      </trkpt>
      <trkpt lat="48.64824" lon="-2.42557">
        <ele>56.109040611158</ele>
        <time>2018-06-10T09:42:24Z</time>
      </trkpt>
      <trkpt lat="48.64822" lon="-2.42543">
        <ele>54.727614647121</ele>
        <time>2018-06-10T09:42:34Z</time>
      </trkpt>
      <trkpt lat="48.6482" lon="-2.42529">
        <ele>54.514133782324</ele>
        <time>2018-06-10T09:42:44Z</time>
      </trkpt>
      <trkpt lat="48.64816" lon="-2.42515">
        <ele>54.071151677015</ele>
        <time>2018-06-10T09:42:51Z</time>
      </trkpt>
      <trkpt lat="48.64813" lon="-2.42498">
        <ele>53.061976844403</ele>
        <time>2018-06-10T09:43:01Z</time>
      </trkpt>
      <trkpt lat="48.64808" lon="-2.42487">
        <ele>54.576684612099</ele>
        <time>2018-06-10T09:43:12Z</time>
      </trkpt>
      <trkpt lat="48.64806" lon="-2.42472">
        <ele>55.364794768826</ele>
        <time>2018-06-10T09:43:21Z</time>
      </trkpt>
      <trkpt lat="48.64802" lon="-2.42458">
        <ele>55.155950117885</ele>
        <time>2018-06-10T09:43:31Z</time>
      </trkpt>
      <trkpt lat="48.64797" lon="-2.42443">
        <ele>56.588114892351</ele>
        <time>2018-06-10T09:43:40Z</time>
      </trkpt>
      <trkpt lat="48.64793" lon="-2.42429">
        <ele>56.583568469217</ele>
        <time>2018-06-10T09:43:51Z</time>
      </trkpt>
      <trkpt lat="48.64788" lon="-2.4241">
        <ele>57.037996938821</ele>
        <time>2018-06-10T09:44:02Z</time>
      </trkpt>
      <trkpt lat="48.64784" lon="-2.42396">
        <ele>56.790218284348</ele>
        <time>2018-06-10T09:44:12Z</time>
      </trkpt>
      <trkpt lat="48.64781" lon="-2.42382">
        <ele>55.669516696957</ele>
        <time>2018-06-10T09:44:18Z</time>
      </trkpt>
      <trkpt lat="48.64778" lon="-2.42368">
        <ele>55.156549014776</ele>
        <time>2018-06-10T09:44:26Z</time>
      </trkpt>
      <trkpt lat="48.64777" lon="-2.42355">
        <ele>54.49838368311</ele>
        <time>2018-06-10T09:44:34Z</time>
      </trkpt>
      <trkpt lat="48.64774" lon="-2.42337">
        <ele>54.379616780807</ele>
        <time>2018-06-10T09:44:44Z</time>
      </trkpt>
      <trkpt lat="48.64773" lon="-2.42323">
        <ele>53.966372274587</ele>
        <time>2018-06-10T09:44:51Z</time>
      </trkpt>
      <trkpt lat="48.64768" lon="-2.4231">
        <ele>53.404983255205</ele>
        <time>2018-06-10T09:45:00Z</time>
      </trkpt>
      <trkpt lat="48.64763" lon="-2.42295">
        <ele>53.137019590702</ele>
        <time>2018-06-10T09:45:09Z</time>
      </trkpt>
      <trkpt lat="48.64761" lon="-2.4228">
        <ele>53.726111435407</ele>
        <time>2018-06-10T09:45:20Z</time>
      </trkpt>
      <trkpt lat="48.64759" lon="-2.42265">
        <ele>52.765237389786</ele>
        <time>2018-06-10T09:45:27Z</time>
      </trkpt>
      <trkpt lat="48.64755" lon="-2.42251">
        <ele>51.870468640511</ele>
        <time>2018-06-10T09:45:36Z</time>
      </trkpt>
      <trkpt lat="48.6475" lon="-2.42238">
        <ele>52.378388977364</ele>
        <time>2018-06-10T09:45:45Z</time>
      </trkpt>
      <trkpt lat="48.64744" lon="-2.42228">
        <ele>52.286036244621</ele>
        <time>2018-06-10T09:45:53Z</time>
      </trkpt>
      <trkpt lat="48.64737" lon="-2.42216">
        <ele>53.16784513727</ele>
        <time>2018-06-10T09:46:03Z</time>
      </trkpt>
      <trkpt lat="48.64734" lon="-2.42203">
        <ele>54.777642072528</ele>
        <time>2018-06-10T09:46:14Z</time>
      </trkpt>
      <trkpt lat="48.64728" lon="-2.4219">
        <ele>56.517506686194</ele>
        <time>2018-06-10T09:46:32Z</time>
      </trkpt>
      <trkpt lat="48.64722" lon="-2.42179">
        <ele>57.716354873365</ele>
        <time>2018-06-10T09:46:40Z</time>
      </trkpt>
      <trkpt lat="48.64713" lon="-2.42164">
        <ele>58.09431192392</ele>
        <time>2018-06-10T09:46:53Z</time>
      </trkpt>
      <trkpt lat="48.64707" lon="-2.42152">
        <ele>57.376445508438</ele>
        <time>2018-06-10T09:47:04Z</time>
      </trkpt>
      <trkpt lat="48.64701" lon="-2.4214">
        <ele>57.408246229084</ele>
        <time>2018-06-10T09:47:14Z</time>
      </trkpt>
      <trkpt lat="48.64695" lon="-2.42129">
        <ele>57.980384297574</ele>
        <time>2018-06-10T09:47:21Z</time>
      </trkpt>
      <trkpt lat="48.64684" lon="-2.42118">
        <ele>58.207301884804</ele>
        <time>2018-06-10T09:47:33Z</time>
      </trkpt>
      <trkpt lat="48.64676" lon="-2.42108">
        <ele>59.258844113522</ele>
        <time>2018-06-10T09:47:41Z</time>
      </trkpt>
      <trkpt lat="48.64666" lon="-2.42104">
        <ele>59.441827755254</ele>
        <time>2018-06-10T09:47:53Z</time>
      </trkpt>
      <trkpt lat="48.6466" lon="-2.42115">
        <ele>60.242295424951</ele>
        <time>2018-06-10T09:48:01Z</time>
      </trkpt>
      <trkpt lat="48.64662" lon="-2.4213">
        <ele>63.68002534049</ele>
        <time>2018-06-10T09:48:12Z</time>
      </trkpt>
      <trkpt lat="48.64667" lon="-2.42142">
        <ele>66.993716740902</ele>
        <time>2018-06-10T09:48:28Z</time>
      </trkpt>
      <trkpt lat="48.64666" lon="-2.42156">
        <ele>69.269329326284</ele>
        <time>2018-06-10T09:48:36Z</time>
      </trkpt>
      <trkpt lat="48.64656" lon="-2.42156">
        <ele>73.395207530393</ele>
        <time>2018-06-10T09:49:00Z</time>
      </trkpt>
      <trkpt lat="48.64647" lon="-2.42154">
        <ele>75.629690336535</ele>
        <time>2018-06-10T09:49:12Z</time>
      </trkpt>
      <trkpt lat="48.64636" lon="-2.42156">
        <ele>78.537119722629</ele>
        <time>2018-06-10T09:49:30Z</time>
      </trkpt>
      <trkpt lat="48.64628" lon="-2.4215">
        <ele>80.696936190792</ele>
        <time>2018-06-10T09:49:37Z</time>
      </trkpt>
      <trkpt lat="48.64619" lon="-2.42142">
        <ele>84.550754849961</ele>
        <time>2018-06-10T09:49:50Z</time>
      </trkpt>
      <trkpt lat="48.64612" lon="-2.42152">
        <ele>96.63233435895</ele>
        <time>2018-06-10T09:50:17Z</time>
      </trkpt>
      <trkpt lat="48.64605" lon="-2.42162">
        <ele>97.384668683126</ele>
        <time>2018-06-10T09:50:28Z</time>
      </trkpt>
      <trkpt lat="48.64596" lon="-2.42168">
        <ele>97.563366842435</ele>
        <time>2018-06-10T09:50:38Z</time>
      </trkpt>
      <trkpt lat="48.64588" lon="-2.42177">
        <ele>97.78640212474</ele>
        <time>2018-06-10T09:50:47Z</time>
      </trkpt>
      <trkpt lat="48.64581" lon="-2.42186">
        <ele>95.31415425642</ele>
        <time>2018-06-10T09:50:54Z</time>
      </trkpt>
      <trkpt lat="48.64568" lon="-2.42195">
        <ele>91.516832071912</ele>
        <time>2018-06-10T09:51:02Z</time>
      </trkpt>
      <trkpt lat="48.64559" lon="-2.42197">
        <ele>89.003435599878</ele>
        <time>2018-06-10T09:51:08Z</time>
      </trkpt>
      <trkpt lat="48.6455" lon="-2.42201">
        <ele>93.149890450198</ele>
        <time>2018-06-10T09:51:22Z</time>
      </trkpt>
      <trkpt lat="48.64541" lon="-2.42207">
        <ele>95.275439820935</ele>
        <time>2018-06-10T09:51:33Z</time>
      </trkpt>
      <trkpt lat="48.64536" lon="-2.42219">
        <ele>94.28957555069</ele>
        <time>2018-06-10T09:51:41Z</time>
      </trkpt>
      <trkpt lat="48.64528" lon="-2.42226">
        <ele>98.071405923312</ele>
        <time>2018-06-10T09:51:53Z</time>
      </trkpt>
      <trkpt lat="48.64521" lon="-2.42235">
        <ele>106.72849941757</ele>
        <time>2018-06-10T09:52:08Z</time>
      </trkpt>
      <trkpt lat="48.64512" lon="-2.4224">
        <ele>118.92661896014</ele>
        <time>2018-06-10T09:52:27Z</time>
      </trkpt>
      <trkpt lat="48.64503" lon="-2.42233">
        <ele>124.91555435265</ele>
        <time>2018-06-10T09:52:35Z</time>
      </trkpt>
      <trkpt lat="48.645" lon="-2.42247">
        <ele>128.44348301499</ele>
        <time>2018-06-10T09:52:41Z</time>
      </trkpt>
      <trkpt lat="48.64494" lon="-2.42259">
        <ele>132.83769242701</ele>
        <time>2018-06-10T09:52:51Z</time>
      </trkpt>
      <trkpt lat="48.64487" lon="-2.42267">
        <ele>132.8181019468</ele>
        <time>2018-06-10T09:53:00Z</time>
      </trkpt>
      <trkpt lat="48.64479" lon="-2.42273">
        <ele>135.31249196616</ele>
        <time>2018-06-10T09:53:18Z</time>
      </trkpt>
      <trkpt lat="48.64467" lon="-2.42273">
        <ele>140.25265243757</ele>
        <time>2018-06-10T09:53:30Z</time>
      </trkpt>
      <trkpt lat="48.64459" lon="-2.42268">
        <ele>141.43107735056</ele>
        <time>2018-06-10T09:53:34Z</time>
      </trkpt>
      <trkpt lat="48.64451" lon="-2.42262">
        <ele>141.04137490337</ele>
        <time>2018-06-10T09:53:36Z</time>
      </trkpt>
      <trkpt lat="48.64441" lon="-2.42258">
        <ele>139.83887874965</ele>
        <time>2018-06-10T09:53:39Z</time>
      </trkpt>
      <trkpt lat="48.64431" lon="-2.42259">
        <ele>136.64537119255</ele>
        <time>2018-06-10T09:53:43Z</time>
      </trkpt>
      <trkpt lat="48.64421" lon="-2.42262">
        <ele>131.3891814337</ele>
        <time>2018-06-10T09:53:51Z</time>
      </trkpt>
      <trkpt lat="48.64411" lon="-2.42258">
        <ele>121.28857467562</ele>
        <time>2018-06-10T09:54:08Z</time>
      </trkpt>
      <trkpt lat="48.64404" lon="-2.42251">
        <ele>114.70121796435</ele>
        <time>2018-06-10T09:54:23Z</time>
      </trkpt>
      <trkpt lat="48.64395" lon="-2.42257">
        <ele>106.53757668607</ele>
        <time>2018-06-10T09:54:41Z</time>
      </trkpt>
      <trkpt lat="48.64386" lon="-2.42262">
        <ele>104.76483165704</ele>
        <time>2018-06-10T09:54:50Z</time>
      </trkpt>
      <trkpt lat="48.64378" lon="-2.42267">
        <ele>101.15741403434</ele>
        <time>2018-06-10T09:54:57Z</time>
      </trkpt>
      <trkpt lat="48.64369" lon="-2.42276">
        <ele>94.785887494763</ele>
        <time>2018-06-10T09:55:06Z</time>
      </trkpt>
      <trkpt lat="48.64363" lon="-2.42285">
        <ele>92.383473408259</ele>
        <time>2018-06-10T09:55:15Z</time>
      </trkpt>
      <trkpt lat="48.64355" lon="-2.42291">
        <ele>91.918021929019</ele>
        <time>2018-06-10T09:55:23Z</time>
      </trkpt>
      <trkpt lat="48.64346" lon="-2.42297">
        <ele>90.739341205131</ele>
        <time>2018-06-10T09:55:32Z</time>
      </trkpt>
      <trkpt lat="48.64338" lon="-2.42304">
        <ele>91.827760122101</ele>
        <time>2018-06-10T09:55:42Z</time>
      </trkpt>
      <trkpt lat="48.6433" lon="-2.42313">
        <ele>90.953514580558</ele>
        <time>2018-06-10T09:55:51Z</time>
      </trkpt>
      <trkpt lat="48.64321" lon="-2.42323">
        <ele>89.946952381884</ele>
        <time>2018-06-10T09:56:03Z</time>
      </trkpt>
      <trkpt lat="48.64313" lon="-2.42331">
        <ele>90.413324590835</ele>
        <time>2018-06-10T09:56:13Z</time>
      </trkpt>
      <trkpt lat="48.64304" lon="-2.42336">
        <ele>92.597255958441</ele>
        <time>2018-06-10T09:56:22Z</time>
      </trkpt>
      <trkpt lat="48.64297" lon="-2.42348">
        <ele>89.678966162344</ele>
        <time>2018-06-10T09:56:33Z</time>
      </trkpt>
      <trkpt lat="48.64288" lon="-2.42356">
        <ele>89.341991497911</ele>
        <time>2018-06-10T09:56:43Z</time>
      </trkpt>
      <trkpt lat="48.64279" lon="-2.42363">
        <ele>91.127008182537</ele>
        <time>2018-06-10T09:56:53Z</time>
      </trkpt>
      <trkpt lat="48.64271" lon="-2.4237">
        <ele>93.985436425965</ele>
        <time>2018-06-10T09:57:03Z</time>
      </trkpt>
      <trkpt lat="48.64262" lon="-2.42378">
        <ele>94.810178541614</ele>
        <time>2018-06-10T09:57:17Z</time>
      </trkpt>
      <trkpt lat="48.64253" lon="-2.42387">
        <ele>96.110927939717</ele>
        <time>2018-06-10T09:57:24Z</time>
      </trkpt>
      <trkpt lat="48.64244" lon="-2.42394">
        <ele>96.489243293542</ele>
        <time>2018-06-10T09:57:35Z</time>
      </trkpt>
      <trkpt lat="48.64234" lon="-2.42403">
        <ele>96.958413265811</ele>
        <time>2018-06-10T09:57:47Z</time>
      </trkpt>
      <trkpt lat="48.64225" lon="-2.42411">
        <ele>96.859973737927</ele>
        <time>2018-06-10T09:57:57Z</time>
      </trkpt>
      <trkpt lat="48.64215" lon="-2.42415">
        <ele>96.969673470153</ele>
        <time>2018-06-10T09:58:05Z</time>
      </trkpt>
      <trkpt lat="48.64206" lon="-2.4242">
        <ele>96.719644890502</ele>
        <time>2018-06-10T09:58:11Z</time>
      </trkpt>
      <trkpt lat="48.64197" lon="-2.42427">
        <ele>100.24510817721</ele>
        <time>2018-06-10T09:58:24Z</time>
      </trkpt>
      <trkpt lat="48.64187" lon="-2.42434">
        <ele>100.89701445659</ele>
        <time>2018-06-10T09:58:33Z</time>
      </trkpt>
      <trkpt lat="48.64178" lon="-2.42437">
        <ele>99.653419644461</ele>
        <time>2018-06-10T09:58:39Z</time>
      </trkpt>
      <trkpt lat="48.6417" lon="-2.42443">
        <ele>105.1576913955</ele>
        <time>2018-06-10T09:58:56Z</time>
      </trkpt>
      <trkpt lat="48.64161" lon="-2.42451">
        <ele>111.92625174593</ele>
        <time>2018-06-10T09:59:12Z</time>
      </trkpt>
      <trkpt lat="48.64152" lon="-2.4246">
        <ele>112.25903347318</ele>
        <time>2018-06-10T09:59:19Z</time>
      </trkpt>
      <trkpt lat="48.64145" lon="-2.4247">
        <ele>112.13267507806</ele>
        <time>2018-06-10T09:59:29Z</time>
      </trkpt>
      <trkpt lat="48.64135" lon="-2.42473">
        <ele>110.93324717067</ele>
        <time>2018-06-10T09:59:37Z</time>
      </trkpt>
      <trkpt lat="48.64126" lon="-2.42472">
        <ele>109.53206993298</ele>
        <time>2018-06-10T09:59:44Z</time>
      </trkpt>
      <trkpt lat="48.64119" lon="-2.42463">
        <ele>107.26052195937</ele>
        <time>2018-06-10T10:00:36Z</time>
      </trkpt>
      <trkpt lat="48.6411" lon="-2.42465">
        <ele>105.26841049724</ele>
        <time>2018-06-10T10:01:03Z</time>
      </trkpt>
      <trkpt lat="48.641" lon="-2.42455">
        <ele>104.06240347898</ele>
        <time>2018-06-10T10:01:13Z</time>
      </trkpt>
      <trkpt lat="48.64093" lon="-2.42444">
        <ele>103.79575915275</ele>
        <time>2018-06-10T10:01:20Z</time>
      </trkpt>
      <trkpt lat="48.64089" lon="-2.42428">
        <ele>103.18147460624</ele>
        <time>2018-06-10T10:01:34Z</time>
      </trkpt>
      <trkpt lat="48.64086" lon="-2.42413">
        <ele>102.23697746472</ele>
        <time>2018-06-10T10:01:39Z</time>
      </trkpt>
      <trkpt lat="48.64083" lon="-2.424">
        <ele>100.5443490685</ele>
        <time>2018-06-10T10:01:47Z</time>
      </trkpt>
      <trkpt lat="48.64084" lon="-2.42386">
        <ele>102.17795966158</ele>
        <time>2018-06-10T10:01:54Z</time>
      </trkpt>
      <trkpt lat="48.64085" lon="-2.42371">
        <ele>104.32055332798</ele>
        <time>2018-06-10T10:02:03Z</time>
      </trkpt>
      <trkpt lat="48.64088" lon="-2.42358">
        <ele>99.755009210776</ele>
        <time>2018-06-10T10:02:12Z</time>
      </trkpt>
      <trkpt lat="48.64091" lon="-2.42345">
        <ele>97.152841437792</ele>
        <time>2018-06-10T10:02:21Z</time>
      </trkpt>
      <trkpt lat="48.64094" lon="-2.4233">
        <ele>96.324962775571</ele>
        <time>2018-06-10T10:02:31Z</time>
      </trkpt>
      <trkpt lat="48.64095" lon="-2.42315">
        <ele>98.07179996711</ele>
        <time>2018-06-10T10:02:40Z</time>
      </trkpt>
      <trkpt lat="48.64089" lon="-2.42302">
        <ele>100.8518154847</ele>
        <time>2018-06-10T10:02:50Z</time>
      </trkpt>
      <trkpt lat="48.64089" lon="-2.42288">
        <ele>101.48397522883</ele>
        <time>2018-06-10T10:02:58Z</time>
      </trkpt>
      <trkpt lat="48.64089" lon="-2.42273">
        <ele>101.44422496781</ele>
        <time>2018-06-10T10:03:05Z</time>
      </trkpt>
      <trkpt lat="48.64081" lon="-2.42264">
        <ele>102.59761076391</ele>
        <time>2018-06-10T10:03:15Z</time>
      </trkpt>
      <trkpt lat="48.64073" lon="-2.42261">
        <ele>104.39066415107</ele>
        <time>2018-06-10T10:03:25Z</time>
      </trkpt>
      <trkpt lat="48.64063" lon="-2.42254">
        <ele>104.27544742761</ele>
        <time>2018-06-10T10:03:35Z</time>
      </trkpt>
      <trkpt lat="48.64053" lon="-2.42249">
        <ele>104.02912134451</ele>
        <time>2018-06-10T10:03:39Z</time>
      </trkpt>
      <trkpt lat="48.64045" lon="-2.42241">
        <ele>103.69473732807</ele>
        <time>2018-06-10T10:03:48Z</time>
      </trkpt>
      <trkpt lat="48.64037" lon="-2.42233">
        <ele>104.20228021255</ele>
        <time>2018-06-10T10:04:02Z</time>
      </trkpt>
      <trkpt lat="48.64028" lon="-2.42235">
        <ele>106.15362738043</ele>
        <time>2018-06-10T10:04:29Z</time>
      </trkpt>
      <trkpt lat="48.64018" lon="-2.42234">
        <ele>105.41173873733</ele>
        <time>2018-06-10T10:04:39Z</time>
      </trkpt>
      <trkpt lat="48.64008" lon="-2.42233">
        <ele>104.50758930227</ele>
        <time>2018-06-10T10:04:45Z</time>
      </trkpt>
      <trkpt lat="48.63999" lon="-2.42238">
        <ele>102.83538998287</ele>
        <time>2018-06-10T10:04:56Z</time>
      </trkpt>
      <trkpt lat="48.63986" lon="-2.42233">
        <ele>102.33218344611</ele>
        <time>2018-06-10T10:05:09Z</time>
      </trkpt>
      <trkpt lat="48.63976" lon="-2.42233">
        <ele>103.26975390861</ele>
        <time>2018-06-10T10:05:19Z</time>
      </trkpt>
      <trkpt lat="48.63966" lon="-2.42238">
        <ele>104.27670220993</ele>
        <time>2018-06-10T10:05:37Z</time>
      </trkpt>
      <trkpt lat="48.63956" lon="-2.42241">
        <ele>104.65260950625</ele>
        <time>2018-06-10T10:05:51Z</time>
      </trkpt>
      <trkpt lat="48.63945" lon="-2.42241">
        <ele>103.41513837266</ele>
        <time>2018-06-10T10:06:00Z</time>
      </trkpt>
      <trkpt lat="48.63935" lon="-2.4224">
        <ele>102.82240330683</ele>
        <time>2018-06-10T10:06:15Z</time>
      </trkpt>
      <trkpt lat="48.63925" lon="-2.42238">
        <ele>103.56287025823</ele>
        <time>2018-06-10T10:06:37Z</time>
      </trkpt>
      <trkpt lat="48.63916" lon="-2.42231">
        <ele>103.67684740409</ele>
        <time>2018-06-10T10:06:46Z</time>
      </trkpt>
      <trkpt lat="48.63908" lon="-2.42227">
        <ele>104.72946074948</ele>
        <time>2018-06-10T10:07:05Z</time>
      </trkpt>
      <trkpt lat="48.63899" lon="-2.42223">
        <ele>103.03044634597</ele>
        <time>2018-06-10T10:07:23Z</time>
      </trkpt>
      <trkpt lat="48.63891" lon="-2.42215">
        <ele>106.86377613923</ele>
        <time>2018-06-10T10:14:43Z</time>
      </trkpt>
      <trkpt lat="48.63881" lon="-2.42213">
        <ele>106.82854089804</ele>
        <time>2018-06-10T10:14:56Z</time>
      </trkpt>
      <trkpt lat="48.63875" lon="-2.42202">
        <ele>106.1207683475</ele>
        <time>2018-06-10T10:15:07Z</time>
      </trkpt>
      <trkpt lat="48.63863" lon="-2.42194">
        <ele>104.81504216455</ele>
        <time>2018-06-10T10:15:18Z</time>
      </trkpt>
      <trkpt lat="48.63854" lon="-2.42189">
        <ele>104.84702273932</ele>
        <time>2018-06-10T10:15:27Z</time>
      </trkpt>
      <trkpt lat="48.63846" lon="-2.42182">
        <ele>105.87575254422</ele>
        <time>2018-06-10T10:15:42Z</time>
      </trkpt>
      <trkpt lat="48.63837" lon="-2.42176">
        <ele>104.73412842001</ele>
        <time>2018-06-10T10:15:55Z</time>
      </trkpt>
      <trkpt lat="48.63828" lon="-2.42174">
        <ele>105.25262697552</ele>
        <time>2018-06-10T10:16:04Z</time>
      </trkpt>
      <trkpt lat="48.63818" lon="-2.4217">
        <ele>105.40900389653</ele>
        <time>2018-06-10T10:16:13Z</time>
      </trkpt>
      <trkpt lat="48.63807" lon="-2.42172">
        <ele>107.54997589952</ele>
        <time>2018-06-10T10:16:27Z</time>
      </trkpt>
      <trkpt lat="48.63797" lon="-2.42172">
        <ele>109.81610565341</ele>
        <time>2018-06-10T10:16:37Z</time>
      </trkpt>
      <trkpt lat="48.63787" lon="-2.42174">
        <ele>110.5943102969</ele>
        <time>2018-06-10T10:16:48Z</time>
      </trkpt>
      <trkpt lat="48.63778" lon="-2.42176">
        <ele>109.25334550015</ele>
        <time>2018-06-10T10:16:56Z</time>
      </trkpt>
      <trkpt lat="48.63767" lon="-2.42179">
        <ele>109.3903352762</ele>
        <time>2018-06-10T10:17:08Z</time>
      </trkpt>
      <trkpt lat="48.63755" lon="-2.42183">
        <ele>109.45171980772</ele>
        <time>2018-06-10T10:17:22Z</time>
      </trkpt>
      <trkpt lat="48.63746" lon="-2.42188">
        <ele>109.15840232671</ele>
        <time>2018-06-10T10:17:34Z</time>
      </trkpt>
      <trkpt lat="48.63738" lon="-2.42183">
        <ele>108.39464601415</ele>
        <time>2018-06-10T10:18:06Z</time>
      </trkpt>
      <trkpt lat="48.6374" lon="-2.42168">
        <ele>106.52978379314</ele>
        <time>2018-06-10T10:18:45Z</time>
      </trkpt>
      <trkpt lat="48.63746" lon="-2.42157">
        <ele>108.7453105846</ele>
        <time>2018-06-10T10:19:05Z</time>
      </trkpt>
      <trkpt lat="48.63752" lon="-2.42147">
        <ele>106.70405699023</ele>
        <time>2018-06-10T10:19:29Z</time>
      </trkpt>
      <trkpt lat="48.63762" lon="-2.42144">
        <ele>108.34060388572</ele>
        <time>2018-06-10T10:19:34Z</time>
      </trkpt>
      <trkpt lat="48.63768" lon="-2.42133">
        <ele>107.03510597118</ele>
        <time>2018-06-10T10:19:48Z</time>
      </trkpt>
      <trkpt lat="48.63769" lon="-2.42118">
        <ele>105.70608549151</ele>
        <time>2018-06-10T10:19:58Z</time>
      </trkpt>
      <trkpt lat="48.63773" lon="-2.42106">
        <ele>102.86351411204</ele>
        <time>2018-06-10T10:20:07Z</time>
      </trkpt>
      <trkpt lat="48.63779" lon="-2.42094">
        <ele>102.62467524804</ele>
        <time>2018-06-10T10:20:24Z</time>
      </trkpt>
      <trkpt lat="48.63786" lon="-2.42084">
        <ele>102.49818826719</ele>
        <time>2018-06-10T10:20:42Z</time>
      </trkpt>
      <trkpt lat="48.63791" lon="-2.4207">
        <ele>104.72265044446</ele>
        <time>2018-06-10T10:20:51Z</time>
      </trkpt>
      <trkpt lat="48.63792" lon="-2.42055">
        <ele>104.80978323393</ele>
        <time>2018-06-10T10:21:03Z</time>
      </trkpt>
      <trkpt lat="48.63789" lon="-2.42042">
        <ele>100.55849354136</ele>
        <time>2018-06-10T10:21:13Z</time>
      </trkpt>
      <trkpt lat="48.63796" lon="-2.4203">
        <ele>98.828159195425</ele>
        <time>2018-06-10T10:21:27Z</time>
      </trkpt>
      <trkpt lat="48.63789" lon="-2.42021">
        <ele>104.72510924794</ele>
        <time>2018-06-10T10:21:44Z</time>
      </trkpt>
      <trkpt lat="48.63783" lon="-2.42008">
        <ele>99.387866794957</ele>
        <time>2018-06-10T10:21:56Z</time>
      </trkpt>
      <trkpt lat="48.63784" lon="-2.41994">
        <ele>96.610895404035</ele>
        <time>2018-06-10T10:22:05Z</time>
      </trkpt>
      <trkpt lat="48.6378" lon="-2.41981">
        <ele>98.781381721456</ele>
        <time>2018-06-10T10:22:28Z</time>
      </trkpt>
      <trkpt lat="48.63778" lon="-2.41967">
        <ele>101.28175475387</ele>
        <time>2018-06-10T10:22:36Z</time>
      </trkpt>
      <trkpt lat="48.63779" lon="-2.41949">
        <ele>105.21517606458</ele>
        <time>2018-06-10T10:22:42Z</time>
      </trkpt>
      <trkpt lat="48.63784" lon="-2.41933">
        <ele>111.52532180371</ele>
        <time>2018-06-10T10:22:47Z</time>
      </trkpt>
      <trkpt lat="48.63778" lon="-2.41923">
        <ele>114.74370160063</ele>
        <time>2018-06-10T10:22:55Z</time>
      </trkpt>
      <trkpt lat="48.6377" lon="-2.41916">
        <ele>110.95554703109</ele>
        <time>2018-06-10T10:23:11Z</time>
      </trkpt>
      <trkpt lat="48.63762" lon="-2.41907">
        <ele>106.29233190548</ele>
        <time>2018-06-10T10:23:26Z</time>
      </trkpt>
      <trkpt lat="48.63762" lon="-2.41892">
        <ele>106.74073322181</ele>
        <time>2018-06-10T10:23:36Z</time>
      </trkpt>
      <trkpt lat="48.63764" lon="-2.41877">
        <ele>110.7196527755</ele>
        <time>2018-06-10T10:23:49Z</time>
      </trkpt>
      <trkpt lat="48.63763" lon="-2.41861">
        <ele>115.46554813759</ele>
        <time>2018-06-10T10:23:58Z</time>
      </trkpt>
      <trkpt lat="48.63756" lon="-2.41852">
        <ele>104.87077592288</ele>
        <time>2018-06-10T10:24:34Z</time>
      </trkpt>
      <trkpt lat="48.63743" lon="-2.41855">
        <ele>82.588537291367</ele>
        <time>2018-06-10T10:27:01Z</time>
      </trkpt>
      <trkpt lat="48.63734" lon="-2.41851">
        <ele>79.665713684761</ele>
        <time>2018-06-10T10:27:05Z</time>
      </trkpt>
      <trkpt lat="48.63726" lon="-2.41844">
        <ele>76.607924227117</ele>
        <time>2018-06-10T10:27:12Z</time>
      </trkpt>
      <trkpt lat="48.63718" lon="-2.41836">
        <ele>77.033179677282</ele>
        <time>2018-06-10T10:27:20Z</time>
      </trkpt>
      <trkpt lat="48.63714" lon="-2.41822">
        <ele>78.927107660041</ele>
        <time>2018-06-10T10:27:28Z</time>
      </trkpt>
      <trkpt lat="48.63707" lon="-2.41809">
        <ele>78.122811113925</ele>
        <time>2018-06-10T10:27:36Z</time>
      </trkpt>
      <trkpt lat="48.63702" lon="-2.41799">
        <ele>76.030536222706</ele>
        <time>2018-06-10T10:27:48Z</time>
      </trkpt>
      <trkpt lat="48.637" lon="-2.41784">
        <ele>75.628918302222</ele>
        <time>2018-06-10T10:27:57Z</time>
      </trkpt>
      <trkpt lat="48.63695" lon="-2.41771">
        <ele>77.123472302476</ele>
        <time>2018-06-10T10:28:09Z</time>
      </trkpt>
      <trkpt lat="48.63696" lon="-2.41756">
        <ele>76.767998465447</ele>
        <time>2018-06-10T10:28:16Z</time>
      </trkpt>
      <trkpt lat="48.63689" lon="-2.41745">
        <ele>76.080061924499</ele>
        <time>2018-06-10T10:28:25Z</time>
      </trkpt>
      <trkpt lat="48.63682" lon="-2.41733">
        <ele>74.763757331679</ele>
        <time>2018-06-10T10:28:33Z</time>
      </trkpt>
      <trkpt lat="48.63678" lon="-2.4172">
        <ele>74.999850425112</ele>
        <time>2018-06-10T10:28:42Z</time>
      </trkpt>
      <trkpt lat="48.63681" lon="-2.41707">
        <ele>80.920822212879</ele>
        <time>2018-06-10T10:28:52Z</time>
      </trkpt>
      <trkpt lat="48.63672" lon="-2.41704">
        <ele>83.046496381466</ele>
        <time>2018-06-10T10:29:01Z</time>
      </trkpt>
      <trkpt lat="48.63671" lon="-2.4169">
        <ele>82.330417249101</ele>
        <time>2018-06-10T10:29:07Z</time>
      </trkpt>
      <trkpt lat="48.63664" lon="-2.41681">
        <ele>80.712790300609</ele>
        <time>2018-06-10T10:29:14Z</time>
      </trkpt>
      <trkpt lat="48.63655" lon="-2.41683">
        <ele>79.236540918873</ele>
        <time>2018-06-10T10:29:18Z</time>
      </trkpt>
      <trkpt lat="48.63645" lon="-2.41685">
        <ele>75.97662295938</ele>
        <time>2018-06-10T10:29:24Z</time>
      </trkpt>
      <trkpt lat="48.63637" lon="-2.41694">
        <ele>74.605671370874</ele>
        <time>2018-06-10T10:29:36Z</time>
      </trkpt>
      <trkpt lat="48.63628" lon="-2.41706">
        <ele>70.943452008229</ele>
        <time>2018-06-10T10:29:41Z</time>
      </trkpt>
      <trkpt lat="48.63621" lon="-2.41714">
        <ele>67.283711876604</ele>
        <time>2018-06-10T10:29:50Z</time>
      </trkpt>
      <trkpt lat="48.63613" lon="-2.4172">
        <ele>71.181742148621</ele>
        <time>2018-06-10T10:30:15Z</time>
      </trkpt>
      <trkpt lat="48.63604" lon="-2.41715">
        <ele>70.784729264427</ele>
        <time>2018-06-10T10:30:25Z</time>
      </trkpt>
      <trkpt lat="48.63595" lon="-2.41713">
        <ele>70.449661017006</ele>
        <time>2018-06-10T10:30:30Z</time>
      </trkpt>
      <trkpt lat="48.63586" lon="-2.41714">
        <ele>69.033088500162</ele>
        <time>2018-06-10T10:30:39Z</time>
      </trkpt>
      <trkpt lat="48.63577" lon="-2.41711">
        <ele>67.649279836526</ele>
        <time>2018-06-10T10:30:51Z</time>
      </trkpt>
      <trkpt lat="48.63571" lon="-2.417">
        <ele>67.08959603485</ele>
        <time>2018-06-10T10:30:58Z</time>
      </trkpt>
      <trkpt lat="48.63566" lon="-2.41689">
        <ele>67.126214603559</ele>
        <time>2018-06-10T10:31:07Z</time>
      </trkpt>
      <trkpt lat="48.63558" lon="-2.41678">
        <ele>64.825426568779</ele>
        <time>2018-06-10T10:31:17Z</time>
      </trkpt>
      <trkpt lat="48.63549" lon="-2.41676">
        <ele>59.486552609337</ele>
        <time>2018-06-10T10:31:34Z</time>
      </trkpt>
      <trkpt lat="48.63557" lon="-2.41682">
        <ele>59.382392267977</ele>
        <time>2018-06-10T10:36:52Z</time>
      </trkpt>
      <trkpt lat="48.63567" lon="-2.41689">
        <ele>60.571098400782</ele>
        <time>2018-06-10T10:37:05Z</time>
      </trkpt>
      <trkpt lat="48.63574" lon="-2.41699">
        <ele>62.973313040775</ele>
        <time>2018-06-10T10:37:16Z</time>
      </trkpt>
      <trkpt lat="48.63583" lon="-2.41705">
        <ele>64.989562323949</ele>
        <time>2018-06-10T10:37:39Z</time>
      </trkpt>
      <trkpt lat="48.63589" lon="-2.41719">
        <ele>64.519151425964</ele>
        <time>2018-06-10T10:37:46Z</time>
      </trkpt>
      <trkpt lat="48.63596" lon="-2.41729">
        <ele>63.452026742198</ele>
        <time>2018-06-10T10:37:56Z</time>
      </trkpt>
      <trkpt lat="48.63594" lon="-2.41742">
        <ele>64.379250777862</ele>
        <time>2018-06-10T10:38:17Z</time>
      </trkpt>
      <trkpt lat="48.63585" lon="-2.41754">
        <ele>64.079462637363</ele>
        <time>2018-06-10T10:38:25Z</time>
      </trkpt>
      <trkpt lat="48.63578" lon="-2.41765">
        <ele>63.752982719573</ele>
        <time>2018-06-10T10:38:33Z</time>
      </trkpt>
      <trkpt lat="48.63573" lon="-2.41776">
        <ele>62.895605953819</ele>
        <time>2018-06-10T10:38:47Z</time>
      </trkpt>
      <trkpt lat="48.6357" lon="-2.4179">
        <ele>61.169761550242</ele>
        <time>2018-06-10T10:39:12Z</time>
      </trkpt>
      <trkpt lat="48.6356" lon="-2.41789">
        <ele>68.595537389455</ele>
        <time>2018-06-10T10:40:13Z</time>
      </trkpt>
      <trkpt lat="48.63554" lon="-2.41799">
        <ele>69.19807570566</ele>
        <time>2018-06-10T10:40:21Z</time>
      </trkpt>
      <trkpt lat="48.63548" lon="-2.41812">
        <ele>68.224895692051</ele>
        <time>2018-06-10T10:40:33Z</time>
      </trkpt>
      <trkpt lat="48.63541" lon="-2.41823">
        <ele>66.68069168341</ele>
        <time>2018-06-10T10:40:40Z</time>
      </trkpt>
      <trkpt lat="48.63533" lon="-2.41834">
        <ele>65.569756970649</ele>
        <time>2018-06-10T10:40:47Z</time>
      </trkpt>
      <trkpt lat="48.63527" lon="-2.41847">
        <ele>64.086637799201</ele>
        <time>2018-06-10T10:41:02Z</time>
      </trkpt>
      <trkpt lat="48.6352" lon="-2.41855">
        <ele>61.728463603316</ele>
        <time>2018-06-10T10:42:20Z</time>
      </trkpt>
      <trkpt lat="48.63512" lon="-2.41865">
        <ele>62.641289941829</ele>
        <time>2018-06-10T10:42:32Z</time>
      </trkpt>
      <trkpt lat="48.63504" lon="-2.41872">
        <ele>63.384101221109</ele>
        <time>2018-06-10T10:42:39Z</time>
      </trkpt>
      <trkpt lat="48.63497" lon="-2.4188">
        <ele>63.20864694876</ele>
        <time>2018-06-10T10:42:48Z</time>
      </trkpt>
      <trkpt lat="48.63489" lon="-2.41889">
        <ele>63.90453197508</ele>
        <time>2018-06-10T10:42:56Z</time>
      </trkpt>
      <trkpt lat="48.63481" lon="-2.41896">
        <ele>63.900075904912</ele>
        <time>2018-06-10T10:43:06Z</time>
      </trkpt>
      <trkpt lat="48.63474" lon="-2.41903">
        <ele>63.841540717077</ele>
        <time>2018-06-10T10:43:14Z</time>
      </trkpt>
      <trkpt lat="48.63466" lon="-2.41911">
        <ele>63.093246052215</ele>
        <time>2018-06-10T10:43:20Z</time>
      </trkpt>
      <trkpt lat="48.63457" lon="-2.41923">
        <ele>62.437800313278</ele>
        <time>2018-06-10T10:43:33Z</time>
      </trkpt>
      <trkpt lat="48.6345" lon="-2.41933">
        <ele>62.541537983854</ele>
        <time>2018-06-10T10:43:39Z</time>
      </trkpt>
      <trkpt lat="48.63445" lon="-2.41945">
        <ele>63.38756927636</ele>
        <time>2018-06-10T10:43:48Z</time>
      </trkpt>
      <trkpt lat="48.63439" lon="-2.41957">
        <ele>63.253363128539</ele>
        <time>2018-06-10T10:43:56Z</time>
      </trkpt>
      <trkpt lat="48.63436" lon="-2.41972">
        <ele>63.520778000223</ele>
        <time>2018-06-10T10:44:07Z</time>
      </trkpt>
      <trkpt lat="48.63433" lon="-2.41992">
        <ele>63.746512616066</ele>
        <time>2018-06-10T10:44:20Z</time>
      </trkpt>
      <trkpt lat="48.6343" lon="-2.42006">
        <ele>62.630487858007</ele>
        <time>2018-06-10T10:44:27Z</time>
      </trkpt>
      <trkpt lat="48.63425" lon="-2.42017">
        <ele>63.61259923621</ele>
        <time>2018-06-10T10:44:39Z</time>
      </trkpt>
      <trkpt lat="48.63417" lon="-2.42028">
        <ele>64.916230006627</ele>
        <time>2018-06-10T10:44:51Z</time>
      </trkpt>
      <trkpt lat="48.63409" lon="-2.42035">
        <ele>66.468310121986</ele>
        <time>2018-06-10T10:45:00Z</time>
      </trkpt>
      <trkpt lat="48.634" lon="-2.42045">
        <ele>67.905517015098</ele>
        <time>2018-06-10T10:45:11Z</time>
      </trkpt>
      <trkpt lat="48.63392" lon="-2.42053">
        <ele>69.843353509783</ele>
        <time>2018-06-10T10:45:19Z</time>
      </trkpt>
      <trkpt lat="48.63383" lon="-2.42059">
        <ele>71.298394292817</ele>
        <time>2018-06-10T10:45:29Z</time>
      </trkpt>
      <trkpt lat="48.63375" lon="-2.42067">
        <ele>68.041695248599</ele>
        <time>2018-06-10T10:45:51Z</time>
      </trkpt>
      <trkpt lat="48.63366" lon="-2.42057">
        <ele>68.673791626116</ele>
        <time>2018-06-10T10:46:18Z</time>
      </trkpt>
      <trkpt lat="48.63362" lon="-2.42043">
        <ele>74.522702647166</ele>
        <time>2018-06-10T10:46:52Z</time>
      </trkpt>
      <trkpt lat="48.63357" lon="-2.4203">
        <ele>77.831536353714</ele>
        <time>2018-06-10T10:47:01Z</time>
      </trkpt>
      <trkpt lat="48.63351" lon="-2.42019">
        <ele>77.170123381735</ele>
        <time>2018-06-10T10:47:09Z</time>
      </trkpt>
      <trkpt lat="48.63343" lon="-2.4201">
        <ele>75.123338967873</ele>
        <time>2018-06-10T10:47:20Z</time>
      </trkpt>
      <trkpt lat="48.63339" lon="-2.41997">
        <ele>71.247655168596</ele>
        <time>2018-06-10T10:47:36Z</time>
      </trkpt>
      <trkpt lat="48.63336" lon="-2.41983">
        <ele>70.637196259116</ele>
        <time>2018-06-10T10:47:44Z</time>
      </trkpt>
      <trkpt lat="48.63332" lon="-2.4197">
        <ele>70.496830926724</ele>
        <time>2018-06-10T10:48:04Z</time>
      </trkpt>
      <trkpt lat="48.63328" lon="-2.41957">
        <ele>69.708196466247</ele>
        <time>2018-06-10T10:48:40Z</time>
      </trkpt>
      <trkpt lat="48.63323" lon="-2.41942">
        <ele>68.712499357972</ele>
        <time>2018-06-10T10:48:49Z</time>
      </trkpt>
      <trkpt lat="48.63318" lon="-2.41929">
        <ele>67.745210166195</ele>
        <time>2018-06-10T10:49:00Z</time>
      </trkpt>
      <trkpt lat="48.63313" lon="-2.41915">
        <ele>66.426151179301</ele>
        <time>2018-06-10T10:49:23Z</time>
      </trkpt>
      <trkpt lat="48.63311" lon="-2.41902">
        <ele>65.620396311089</ele>
        <time>2018-06-10T10:49:46Z</time>
      </trkpt>
      <trkpt lat="48.63306" lon="-2.41888">
        <ele>65.312816044817</ele>
        <time>2018-06-10T10:49:54Z</time>
      </trkpt>
      <trkpt lat="48.63302" lon="-2.41876">
        <ele>65.150195519822</ele>
        <time>2018-06-10T10:50:01Z</time>
      </trkpt>
      <trkpt lat="48.63298" lon="-2.41863">
        <ele>65.222958923669</ele>
        <time>2018-06-10T10:50:10Z</time>
      </trkpt>
      <trkpt lat="48.63294" lon="-2.41849">
        <ele>64.677982804133</ele>
        <time>2018-06-10T10:50:17Z</time>
      </trkpt>
      <trkpt lat="48.63289" lon="-2.41832">
        <ele>63.596656341243</ele>
        <time>2018-06-10T10:50:26Z</time>
      </trkpt>
      <trkpt lat="48.63284" lon="-2.41819">
        <ele>61.351958745992</ele>
        <time>2018-06-10T10:50:37Z</time>
      </trkpt>
      <trkpt lat="48.63279" lon="-2.41806">
        <ele>62.887022400319</ele>
        <time>2018-06-10T10:50:46Z</time>
      </trkpt>
      <trkpt lat="48.63277" lon="-2.41793">
        <ele>63.92292033752</ele>
        <time>2018-06-10T10:51:09Z</time>
      </trkpt>
      <trkpt lat="48.63285" lon="-2.418">
        <ele>62.099511768266</ele>
        <time>2018-06-10T10:51:58Z</time>
      </trkpt>
      <trkpt lat="48.63282" lon="-2.41785">
        <ele>56.741902058718</ele>
        <time>2018-06-10T10:55:25Z</time>
      </trkpt>
      <trkpt lat="48.63275" lon="-2.41776">
        <ele>58.086297357319</ele>
        <time>2018-06-10T10:55:34Z</time>
      </trkpt>
      <trkpt lat="48.63268" lon="-2.41764">
        <ele>59.949733286019</ele>
        <time>2018-06-10T10:55:46Z</time>
      </trkpt>
      <trkpt lat="48.63262" lon="-2.41751">
        <ele>62.631187851568</ele>
        <time>2018-06-10T10:56:16Z</time>
      </trkpt>
      <trkpt lat="48.63257" lon="-2.41738">
        <ele>64.067059562198</ele>
        <time>2018-06-10T10:56:25Z</time>
      </trkpt>
      <trkpt lat="48.63252" lon="-2.41723">
        <ele>64.555666101515</ele>
        <time>2018-06-10T10:56:34Z</time>
      </trkpt>
      <trkpt lat="48.63249" lon="-2.4171">
        <ele>65.991230899879</ele>
        <time>2018-06-10T10:56:41Z</time>
      </trkpt>
      <trkpt lat="48.63248" lon="-2.41694">
        <ele>68.100118439568</ele>
        <time>2018-06-10T10:56:51Z</time>
      </trkpt>
      <trkpt lat="48.63244" lon="-2.41681">
        <ele>68.555523769839</ele>
        <time>2018-06-10T10:57:00Z</time>
      </trkpt>
      <trkpt lat="48.63236" lon="-2.41671">
        <ele>67.424082498001</ele>
        <time>2018-06-10T10:57:06Z</time>
      </trkpt>
      <trkpt lat="48.63238" lon="-2.41656">
        <ele>69.766876537199</ele>
        <time>2018-06-10T10:57:20Z</time>
      </trkpt>
      <trkpt lat="48.63231" lon="-2.41647">
        <ele>72.276622649637</ele>
        <time>2018-06-10T10:57:29Z</time>
      </trkpt>
      <trkpt lat="48.63225" lon="-2.41636">
        <ele>72.523735131017</ele>
        <time>2018-06-10T10:57:35Z</time>
      </trkpt>
      <trkpt lat="48.63221" lon="-2.4162">
        <ele>71.991439087396</ele>
        <time>2018-06-10T10:57:44Z</time>
      </trkpt>
      <trkpt lat="48.63215" lon="-2.41609">
        <ele>78.164788866551</ele>
        <time>2018-06-10T10:57:56Z</time>
      </trkpt>
      <trkpt lat="48.6321" lon="-2.41596">
        <ele>81.921390476391</ele>
        <time>2018-06-10T10:58:06Z</time>
      </trkpt>
      <trkpt lat="48.63208" lon="-2.41576">
        <ele>84.874846136753</ele>
        <time>2018-06-10T10:58:18Z</time>
      </trkpt>
      <trkpt lat="48.63208" lon="-2.4156">
        <ele>81.000408910741</ele>
        <time>2018-06-10T10:58:22Z</time>
      </trkpt>
      <trkpt lat="48.63208" lon="-2.41545">
        <ele>78.927169173693</ele>
        <time>2018-06-10T10:58:30Z</time>
      </trkpt>
      <trkpt lat="48.63205" lon="-2.41532">
        <ele>77.790066806426</ele>
        <time>2018-06-10T10:58:37Z</time>
      </trkpt>
      <trkpt lat="48.63204" lon="-2.41517">
        <ele>76.01660367294</ele>
        <time>2018-06-10T10:58:46Z</time>
      </trkpt>
      <trkpt lat="48.63203" lon="-2.41499">
        <ele>71.252941649333</ele>
        <time>2018-06-10T10:58:54Z</time>
      </trkpt>
      <trkpt lat="48.63201" lon="-2.41486">
        <ele>69.268553085564</ele>
        <time>2018-06-10T10:59:04Z</time>
      </trkpt>
      <trkpt lat="48.63201" lon="-2.41471">
        <ele>66.638010516052</ele>
        <time>2018-06-10T10:59:11Z</time>
      </trkpt>
      <trkpt lat="48.63199" lon="-2.41458">
        <ele>65.281585336152</ele>
        <time>2018-06-10T10:59:18Z</time>
      </trkpt>
      <trkpt lat="48.63197" lon="-2.41443">
        <ele>65.281797467821</ele>
        <time>2018-06-10T10:59:29Z</time>
      </trkpt>
      <trkpt lat="48.63195" lon="-2.41428">
        <ele>64.871832295886</ele>
        <time>2018-06-10T10:59:36Z</time>
      </trkpt>
      <trkpt lat="48.63194" lon="-2.41414">
        <ele>64.683432231895</ele>
        <time>2018-06-10T10:59:44Z</time>
      </trkpt>
      <trkpt lat="48.63194" lon="-2.414">
        <ele>64.375428543902</ele>
        <time>2018-06-10T10:59:51Z</time>
      </trkpt>
      <trkpt lat="48.63193" lon="-2.41386">
        <ele>65.798066735659</ele>
        <time>2018-06-10T11:00:00Z</time>
      </trkpt>
      <trkpt lat="48.63193" lon="-2.41371">
        <ele>67.078058412423</ele>
        <time>2018-06-10T11:00:10Z</time>
      </trkpt>
      <trkpt lat="48.63193" lon="-2.41357">
        <ele>67.429906532924</ele>
        <time>2018-06-10T11:00:15Z</time>
      </trkpt>
      <trkpt lat="48.63196" lon="-2.41339">
        <ele>67.76233864648</ele>
        <time>2018-06-10T11:00:26Z</time>
      </trkpt>
      <trkpt lat="48.63199" lon="-2.41326">
        <ele>68.940207023552</ele>
        <time>2018-06-10T11:00:30Z</time>
      </trkpt>
      <trkpt lat="48.63201" lon="-2.41312">
        <ele>68.441318442437</ele>
        <time>2018-06-10T11:00:38Z</time>
      </trkpt>
      <trkpt lat="48.63203" lon="-2.41294">
        <ele>67.531731495335</ele>
        <time>2018-06-10T11:00:47Z</time>
      </trkpt>
      <trkpt lat="48.63206" lon="-2.41281">
        <ele>66.828542390655</ele>
        <time>2018-06-10T11:00:54Z</time>
      </trkpt>
      <trkpt lat="48.6321" lon="-2.41269">
        <ele>66.732050087293</ele>
        <time>2018-06-10T11:01:03Z</time>
      </trkpt>
      <trkpt lat="48.63216" lon="-2.41254">
        <ele>65.758794229686</ele>
        <time>2018-06-10T11:01:12Z</time>
      </trkpt>
      <trkpt lat="48.63221" lon="-2.4124">
        <ele>64.533099542258</ele>
        <time>2018-06-10T11:01:22Z</time>
      </trkpt>
      <trkpt lat="48.63227" lon="-2.4123">
        <ele>64.246050301118</ele>
        <time>2018-06-10T11:01:30Z</time>
      </trkpt>
      <trkpt lat="48.63233" lon="-2.41218">
        <ele>63.004649606574</ele>
        <time>2018-06-10T11:01:38Z</time>
      </trkpt>
      <trkpt lat="48.6324" lon="-2.41209">
        <ele>62.341008347381</ele>
        <time>2018-06-10T11:01:49Z</time>
      </trkpt>
      <trkpt lat="48.63249" lon="-2.412">
        <ele>62.453869888919</ele>
        <time>2018-06-10T11:01:57Z</time>
      </trkpt>
      <trkpt lat="48.63257" lon="-2.41193">
        <ele>65.041880149315</ele>
        <time>2018-06-10T11:02:06Z</time>
      </trkpt>
      <trkpt lat="48.63266" lon="-2.41185">
        <ele>66.733910702296</ele>
        <time>2018-06-10T11:02:15Z</time>
      </trkpt>
      <trkpt lat="48.63273" lon="-2.41175">
        <ele>65.28461790389</ele>
        <time>2018-06-10T11:02:22Z</time>
      </trkpt>
      <trkpt lat="48.63281" lon="-2.41167">
        <ele>63.777298849784</ele>
        <time>2018-06-10T11:02:29Z</time>
      </trkpt>
      <trkpt lat="48.63288" lon="-2.41157">
        <ele>62.183757206149</ele>
        <time>2018-06-10T11:02:38Z</time>
      </trkpt>
      <trkpt lat="48.63298" lon="-2.4116">
        <ele>62.492420000307</ele>
        <time>2018-06-10T11:02:52Z</time>
      </trkpt>
      <trkpt lat="48.63308" lon="-2.41166">
        <ele>66.948117821626</ele>
        <time>2018-06-10T11:03:04Z</time>
      </trkpt>
      <trkpt lat="48.63318" lon="-2.41167">
        <ele>67.5386928391</ele>
        <time>2018-06-10T11:03:12Z</time>
      </trkpt>
      <trkpt lat="48.63327" lon="-2.41166">
        <ele>65.139479420608</ele>
        <time>2018-06-10T11:03:20Z</time>
      </trkpt>
      <trkpt lat="48.63336" lon="-2.41166">
        <ele>68.053121974843</ele>
        <time>2018-06-10T11:03:29Z</time>
      </trkpt>
      <trkpt lat="48.63347" lon="-2.41163">
        <ele>67.950968437989</ele>
        <time>2018-06-10T11:03:38Z</time>
      </trkpt>
      <trkpt lat="48.63356" lon="-2.41163">
        <ele>68.429578708421</ele>
        <time>2018-06-10T11:03:46Z</time>
      </trkpt>
      <trkpt lat="48.63365" lon="-2.41156">
        <ele>68.896243678571</ele>
        <time>2018-06-10T11:03:56Z</time>
      </trkpt>
      <trkpt lat="48.63374" lon="-2.41149">
        <ele>68.125266884652</ele>
        <time>2018-06-10T11:04:04Z</time>
      </trkpt>
      <trkpt lat="48.63384" lon="-2.41147">
        <ele>66.869280133383</ele>
        <time>2018-06-10T11:04:13Z</time>
      </trkpt>
      <trkpt lat="48.63393" lon="-2.41149">
        <ele>66.631970879806</ele>
        <time>2018-06-10T11:04:21Z</time>
      </trkpt>
      <trkpt lat="48.63402" lon="-2.41151">
        <ele>66.974424375459</ele>
        <time>2018-06-10T11:04:25Z</time>
      </trkpt>
      <trkpt lat="48.63408" lon="-2.41141">
        <ele>70.883275572703</ele>
        <time>2018-06-10T11:04:37Z</time>
      </trkpt>
      <trkpt lat="48.63417" lon="-2.41128">
        <ele>70.699957809184</ele>
        <time>2018-06-10T11:04:45Z</time>
      </trkpt>
      <trkpt lat="48.63427" lon="-2.41118">
        <ele>69.215424346538</ele>
        <time>2018-06-10T11:04:54Z</time>
      </trkpt>
      <trkpt lat="48.63434" lon="-2.41108">
        <ele>66.682673470756</ele>
        <time>2018-06-10T11:05:03Z</time>
      </trkpt>
      <trkpt lat="48.63441" lon="-2.41099">
        <ele>63.602696221654</ele>
        <time>2018-06-10T11:05:13Z</time>
      </trkpt>
      <trkpt lat="48.63446" lon="-2.41087">
        <ele>63.221305505281</ele>
        <time>2018-06-10T11:05:24Z</time>
      </trkpt>
      <trkpt lat="48.63446" lon="-2.41072">
        <ele>63.142940844697</ele>
        <time>2018-06-10T11:05:34Z</time>
      </trkpt>
      <trkpt lat="48.63444" lon="-2.41056">
        <ele>62.42791251256</ele>
        <time>2018-06-10T11:05:45Z</time>
      </trkpt>
      <trkpt lat="48.63437" lon="-2.41041">
        <ele>65.430685823911</ele>
        <time>2018-06-10T11:05:57Z</time>
      </trkpt>
      <trkpt lat="48.63442" lon="-2.41028">
        <ele>67.404743499759</ele>
        <time>2018-06-10T11:06:09Z</time>
      </trkpt>
      <trkpt lat="48.63451" lon="-2.4102">
        <ele>71.18294975149</ele>
        <time>2018-06-10T11:06:40Z</time>
      </trkpt>
      <trkpt lat="48.63461" lon="-2.41022">
        <ele>75.180120717696</ele>
        <time>2018-06-10T11:06:52Z</time>
      </trkpt>
      <trkpt lat="48.63469" lon="-2.41028">
        <ele>74.517594052839</ele>
        <time>2018-06-10T11:06:57Z</time>
      </trkpt>
      <trkpt lat="48.6348" lon="-2.41026">
        <ele>73.483908338188</ele>
        <time>2018-06-10T11:07:08Z</time>
      </trkpt>
      <trkpt lat="48.6349" lon="-2.41015">
        <ele>71.287703790968</ele>
        <time>2018-06-10T11:07:16Z</time>
      </trkpt>
      <trkpt lat="48.63496" lon="-2.41005">
        <ele>67.869291528426</ele>
        <time>2018-06-10T11:07:24Z</time>
      </trkpt>
      <trkpt lat="48.63503" lon="-2.4099">
        <ele>66.476414838844</ele>
        <time>2018-06-10T11:07:36Z</time>
      </trkpt>
      <trkpt lat="48.6351" lon="-2.4098">
        <ele>65.727949367698</ele>
        <time>2018-06-10T11:07:42Z</time>
      </trkpt>
      <trkpt lat="48.63516" lon="-2.4097">
        <ele>65.317632532754</ele>
        <time>2018-06-10T11:07:52Z</time>
      </trkpt>
      <trkpt lat="48.63523" lon="-2.40957">
        <ele>64.795002650534</ele>
        <time>2018-06-10T11:08:01Z</time>
      </trkpt>
      <trkpt lat="48.63531" lon="-2.40945">
        <ele>63.850524875676</ele>
        <time>2018-06-10T11:08:09Z</time>
      </trkpt>
      <trkpt lat="48.63539" lon="-2.40933">
        <ele>62.981158936757</ele>
        <time>2018-06-10T11:08:19Z</time>
      </trkpt>
      <trkpt lat="48.63547" lon="-2.40923">
        <ele>62.394268557485</ele>
        <time>2018-06-10T11:08:27Z</time>
      </trkpt>
      <trkpt lat="48.63553" lon="-2.4091">
        <ele>61.995066536483</ele>
        <time>2018-06-10T11:08:38Z</time>
      </trkpt>
      <trkpt lat="48.63559" lon="-2.409">
        <ele>63.202050708671</ele>
        <time>2018-06-10T11:08:44Z</time>
      </trkpt>
      <trkpt lat="48.63571" lon="-2.40891">
        <ele>63.366751599748</ele>
        <time>2018-06-10T11:08:53Z</time>
      </trkpt>
      <trkpt lat="48.63577" lon="-2.40882">
        <ele>62.495110665183</ele>
        <time>2018-06-10T11:08:59Z</time>
      </trkpt>
      <trkpt lat="48.63586" lon="-2.40874">
        <ele>62.16390351059</ele>
        <time>2018-06-10T11:09:07Z</time>
      </trkpt>
      <trkpt lat="48.63595" lon="-2.40871">
        <ele>61.596404262417</ele>
        <time>2018-06-10T11:09:15Z</time>
      </trkpt>
      <trkpt lat="48.63604" lon="-2.40879">
        <ele>61.52451794038</ele>
        <time>2018-06-10T11:09:24Z</time>
      </trkpt>
      <trkpt lat="48.63613" lon="-2.40885">
        <ele>63.219726540806</ele>
        <time>2018-06-10T11:09:31Z</time>
      </trkpt>
      <trkpt lat="48.63626" lon="-2.40895">
        <ele>63.61588977348</ele>
        <time>2018-06-10T11:09:44Z</time>
      </trkpt>
      <trkpt lat="48.63634" lon="-2.40904">
        <ele>64.840091444722</ele>
        <time>2018-06-10T11:09:53Z</time>
      </trkpt>
      <trkpt lat="48.63642" lon="-2.40912">
        <ele>67.406730878468</ele>
        <time>2018-06-10T11:10:03Z</time>
      </trkpt>
      <trkpt lat="48.63652" lon="-2.40922">
        <ele>70.209864843596</ele>
        <time>2018-06-10T11:10:10Z</time>
      </trkpt>
      <trkpt lat="48.63661" lon="-2.40925">
        <ele>70.594723262718</ele>
        <time>2018-06-10T11:10:17Z</time>
      </trkpt>
      <trkpt lat="48.63671" lon="-2.40927">
        <ele>69.610589041669</ele>
        <time>2018-06-10T11:10:26Z</time>
      </trkpt>
      <trkpt lat="48.63681" lon="-2.40932">
        <ele>68.953696812929</ele>
        <time>2018-06-10T11:10:33Z</time>
      </trkpt>
      <trkpt lat="48.6369" lon="-2.40938">
        <ele>66.907186222444</ele>
        <time>2018-06-10T11:10:41Z</time>
      </trkpt>
      <trkpt lat="48.63698" lon="-2.40943">
        <ele>64.639014765426</ele>
        <time>2018-06-10T11:10:54Z</time>
      </trkpt>
      <trkpt lat="48.63707" lon="-2.40947">
        <ele>64.197573985304</ele>
        <time>2018-06-10T11:11:39Z</time>
      </trkpt>
      <trkpt lat="48.63716" lon="-2.40951">
        <ele>65.717974845963</ele>
        <time>2018-06-10T11:11:53Z</time>
      </trkpt>
      <trkpt lat="48.63726" lon="-2.40952">
        <ele>68.85265112438</ele>
        <time>2018-06-10T11:12:03Z</time>
      </trkpt>
      <trkpt lat="48.63738" lon="-2.40957">
        <ele>71.322184409338</ele>
        <time>2018-06-10T11:12:14Z</time>
      </trkpt>
      <trkpt lat="48.63746" lon="-2.40963">
        <ele>74.970857731034</ele>
        <time>2018-06-10T11:12:33Z</time>
      </trkpt>
      <trkpt lat="48.63754" lon="-2.40973">
        <ele>75.262930254117</ele>
        <time>2018-06-10T11:12:42Z</time>
      </trkpt>
      <trkpt lat="48.63763" lon="-2.40978">
        <ele>78.094419808725</ele>
        <time>2018-06-10T11:13:03Z</time>
      </trkpt>
      <trkpt lat="48.6377" lon="-2.40987">
        <ele>72.752842753382</ele>
        <time>2018-06-10T11:14:42Z</time>
      </trkpt>
      <trkpt lat="48.63763" lon="-2.40978">
        <ele>69.451811755574</ele>
        <time>2018-06-10T11:16:55Z</time>
      </trkpt>
      <trkpt lat="48.63769" lon="-2.4099">
        <ele>65.205025113367</ele>
        <time>2018-06-10T11:18:40Z</time>
      </trkpt>
      <trkpt lat="48.63777" lon="-2.40999">
        <ele>66.117223039431</ele>
        <time>2018-06-10T11:18:44Z</time>
      </trkpt>
      <trkpt lat="48.63786" lon="-2.41007">
        <ele>68.54891168895</ele>
        <time>2018-06-10T11:18:52Z</time>
      </trkpt>
      <trkpt lat="48.63795" lon="-2.4101">
        <ele>70.15578742774</ele>
        <time>2018-06-10T11:19:00Z</time>
      </trkpt>
      <trkpt lat="48.63804" lon="-2.41019">
        <ele>71.164440247322</ele>
        <time>2018-06-10T11:19:10Z</time>
      </trkpt>
      <trkpt lat="48.63815" lon="-2.4102">
        <ele>72.652742538338</ele>
        <time>2018-06-10T11:19:21Z</time>
      </trkpt>
      <trkpt lat="48.63822" lon="-2.41031">
        <ele>74.560369050034</ele>
        <time>2018-06-10T11:19:29Z</time>
      </trkpt>
      <trkpt lat="48.63829" lon="-2.4104">
        <ele>71.924574261671</ele>
        <time>2018-06-10T11:19:35Z</time>
      </trkpt>
      <trkpt lat="48.63838" lon="-2.41053">
        <ele>70.694595758003</ele>
        <time>2018-06-10T11:19:45Z</time>
      </trkpt>
      <trkpt lat="48.63846" lon="-2.41061">
        <ele>69.361683808561</ele>
        <time>2018-06-10T11:19:55Z</time>
      </trkpt>
      <trkpt lat="48.63854" lon="-2.41067">
        <ele>66.184065949855</ele>
        <time>2018-06-10T11:20:04Z</time>
      </trkpt>
      <trkpt lat="48.63862" lon="-2.41074">
        <ele>67.507429973135</ele>
        <time>2018-06-10T11:20:13Z</time>
      </trkpt>
      <trkpt lat="48.6387" lon="-2.41085">
        <ele>68.031224389896</ele>
        <time>2018-06-10T11:20:23Z</time>
      </trkpt>
      <trkpt lat="48.63879" lon="-2.41095">
        <ele>67.899528222986</ele>
        <time>2018-06-10T11:20:31Z</time>
      </trkpt>
      <trkpt lat="48.63887" lon="-2.41105">
        <ele>64.992337170813</ele>
        <time>2018-06-10T11:20:42Z</time>
      </trkpt>
      <trkpt lat="48.63895" lon="-2.41111">
        <ele>62.558111690802</ele>
        <time>2018-06-10T11:21:02Z</time>
      </trkpt>
      <trkpt lat="48.63904" lon="-2.41104">
        <ele>62.643880531257</ele>
        <time>2018-06-10T11:21:15Z</time>
      </trkpt>
      <trkpt lat="48.63912" lon="-2.41095">
        <ele>63.657116868774</ele>
        <time>2018-06-10T11:21:33Z</time>
      </trkpt>
      <trkpt lat="48.63922" lon="-2.41089">
        <ele>67.256267899023</ele>
        <time>2018-06-10T11:21:46Z</time>
      </trkpt>
      <trkpt lat="48.63929" lon="-2.411">
        <ele>67.446944368826</ele>
        <time>2018-06-10T11:22:00Z</time>
      </trkpt>
      <trkpt lat="48.63926" lon="-2.41117">
        <ele>66.680530852618</ele>
        <time>2018-06-10T11:22:09Z</time>
      </trkpt>
      <trkpt lat="48.63923" lon="-2.4113">
        <ele>66.246790567756</ele>
        <time>2018-06-10T11:22:30Z</time>
      </trkpt>
      <trkpt lat="48.63929" lon="-2.41143">
        <ele>70.303584233358</ele>
        <time>2018-06-10T11:22:40Z</time>
      </trkpt>
      <trkpt lat="48.63932" lon="-2.41156">
        <ele>75.527092452102</ele>
        <time>2018-06-10T11:22:59Z</time>
      </trkpt>
      <trkpt lat="48.63939" lon="-2.41169">
        <ele>76.708642497817</ele>
        <time>2018-06-10T11:23:12Z</time>
      </trkpt>
      <trkpt lat="48.63947" lon="-2.41185">
        <ele>73.715853958315</ele>
        <time>2018-06-10T11:23:20Z</time>
      </trkpt>
      <trkpt lat="48.63957" lon="-2.41186">
        <ele>70.348719414295</ele>
        <time>2018-06-10T11:23:28Z</time>
      </trkpt>
      <trkpt lat="48.63965" lon="-2.41178">
        <ele>68.341764711141</ele>
        <time>2018-06-10T11:23:39Z</time>
      </trkpt>
      <trkpt lat="48.63973" lon="-2.4117">
        <ele>65.94912760028</ele>
        <time>2018-06-10T11:23:47Z</time>
      </trkpt>
      <trkpt lat="48.63983" lon="-2.4117">
        <ele>63.172176176285</ele>
        <time>2018-06-10T11:24:00Z</time>
      </trkpt>
      <trkpt lat="48.63986" lon="-2.41183">
        <ele>68.227268451782</ele>
        <time>2018-06-10T11:24:26Z</time>
      </trkpt>
      <trkpt lat="48.63988" lon="-2.41197">
        <ele>68.237449628471</ele>
        <time>2018-06-10T11:24:34Z</time>
      </trkpt>
      <trkpt lat="48.63995" lon="-2.4121">
        <ele>66.650293589407</ele>
        <time>2018-06-10T11:24:38Z</time>
      </trkpt>
      <trkpt lat="48.64" lon="-2.41222">
        <ele>65.822573422977</ele>
        <time>2018-06-10T11:24:45Z</time>
      </trkpt>
      <trkpt lat="48.64002" lon="-2.41237">
        <ele>64.770429668283</ele>
        <time>2018-06-10T11:24:54Z</time>
      </trkpt>
      <trkpt lat="48.64004" lon="-2.41253">
        <ele>64.072507438833</ele>
        <time>2018-06-10T11:25:02Z</time>
      </trkpt>
      <trkpt lat="48.64007" lon="-2.4127">
        <ele>65.121698624566</ele>
        <time>2018-06-10T11:25:13Z</time>
      </trkpt>
      <trkpt lat="48.6401" lon="-2.41285">
        <ele>65.162481719558</ele>
        <time>2018-06-10T11:25:25Z</time>
      </trkpt>
      <trkpt lat="48.64011" lon="-2.413">
        <ele>67.138209083437</ele>
        <time>2018-06-10T11:25:36Z</time>
      </trkpt>
      <trkpt lat="48.64014" lon="-2.41313">
        <ele>66.503582876714</ele>
        <time>2018-06-10T11:25:44Z</time>
      </trkpt>
      <trkpt lat="48.64017" lon="-2.41328">
        <ele>65.856343990251</ele>
        <time>2018-06-10T11:25:54Z</time>
      </trkpt>
      <trkpt lat="48.64021" lon="-2.41343">
        <ele>65.73450305821</ele>
        <time>2018-06-10T11:26:05Z</time>
      </trkpt>
      <trkpt lat="48.64027" lon="-2.41353">
        <ele>68.874712039188</ele>
        <time>2018-06-10T11:26:26Z</time>
      </trkpt>
      <trkpt lat="48.64037" lon="-2.41354">
        <ele>70.128958908766</ele>
        <time>2018-06-10T11:26:40Z</time>
      </trkpt>
      <trkpt lat="48.64047" lon="-2.4135">
        <ele>70.770744422732</ele>
        <time>2018-06-10T11:27:20Z</time>
      </trkpt>
      <trkpt lat="48.64057" lon="-2.41352">
        <ele>70.315930503095</ele>
        <time>2018-06-10T11:28:04Z</time>
      </trkpt>
      <trkpt lat="48.64066" lon="-2.41347">
        <ele>71.982765738354</ele>
        <time>2018-06-10T11:28:17Z</time>
      </trkpt>
      <trkpt lat="48.64075" lon="-2.41346">
        <ele>81.298426534565</ele>
        <time>2018-06-10T11:28:31Z</time>
      </trkpt>
      <trkpt lat="48.64082" lon="-2.41337">
        <ele>80.341574655894</ele>
        <time>2018-06-10T11:28:40Z</time>
      </trkpt>
      <trkpt lat="48.64087" lon="-2.41325">
        <ele>77.860807875017</ele>
        <time>2018-06-10T11:28:47Z</time>
      </trkpt>
      <trkpt lat="48.64091" lon="-2.41308">
        <ele>74.73045921001</ele>
        <time>2018-06-10T11:28:56Z</time>
      </trkpt>
      <trkpt lat="48.64091" lon="-2.41295">
        <ele>71.433241460828</ele>
        <time>2018-06-10T11:29:04Z</time>
      </trkpt>
      <trkpt lat="48.64091" lon="-2.41281">
        <ele>69.575085885103</ele>
        <time>2018-06-10T11:29:12Z</time>
      </trkpt>
      <trkpt lat="48.64091" lon="-2.4126">
        <ele>68.028862434917</ele>
        <time>2018-06-10T11:29:22Z</time>
      </trkpt>
      <trkpt lat="48.64092" lon="-2.41245">
        <ele>67.796406569111</ele>
        <time>2018-06-10T11:29:32Z</time>
      </trkpt>
      <trkpt lat="48.64092" lon="-2.41231">
        <ele>69.932642005089</ele>
        <time>2018-06-10T11:29:41Z</time>
      </trkpt>
      <trkpt lat="48.64092" lon="-2.41217">
        <ele>69.441214146012</ele>
        <time>2018-06-10T11:29:49Z</time>
      </trkpt>
      <trkpt lat="48.64092" lon="-2.41201">
        <ele>69.101546704673</ele>
        <time>2018-06-10T11:30:02Z</time>
      </trkpt>
      <trkpt lat="48.64091" lon="-2.41187">
        <ele>66.920408678474</ele>
        <time>2018-06-10T11:30:11Z</time>
      </trkpt>
      <trkpt lat="48.6409" lon="-2.41173">
        <ele>67.639977112448</ele>
        <time>2018-06-10T11:30:23Z</time>
      </trkpt>
      <trkpt lat="48.64091" lon="-2.41158">
        <ele>67.707646126077</ele>
        <time>2018-06-10T11:30:33Z</time>
      </trkpt>
      <trkpt lat="48.64091" lon="-2.41143">
        <ele>67.516302702493</ele>
        <time>2018-06-10T11:30:41Z</time>
      </trkpt>
      <trkpt lat="48.64101" lon="-2.41146">
        <ele>69.16686628782</ele>
        <time>2018-06-10T11:30:55Z</time>
      </trkpt>
      <trkpt lat="48.64108" lon="-2.41153">
        <ele>69.540051637998</ele>
        <time>2018-06-10T11:31:04Z</time>
      </trkpt>
      <trkpt lat="48.64117" lon="-2.41154">
        <ele>69.013759668952</ele>
        <time>2018-06-10T11:31:32Z</time>
      </trkpt>
      <trkpt lat="48.64125" lon="-2.41145">
        <ele>69.089638907222</ele>
        <time>2018-06-10T11:32:05Z</time>
      </trkpt>
      <trkpt lat="48.64134" lon="-2.41151">
        <ele>67.132682526286</ele>
        <time>2018-06-10T11:32:18Z</time>
      </trkpt>
      <trkpt lat="48.6414" lon="-2.41161">
        <ele>65.373179554001</ele>
        <time>2018-06-10T11:32:30Z</time>
      </trkpt>
      <trkpt lat="48.64149" lon="-2.41171">
        <ele>61.011213475181</ele>
        <time>2018-06-10T11:32:46Z</time>
      </trkpt>
      <trkpt lat="48.64157" lon="-2.41185">
        <ele>59.967925746411</ele>
        <time>2018-06-10T11:33:00Z</time>
      </trkpt>
      <trkpt lat="48.64161" lon="-2.41198">
        <ele>58.553336142533</ele>
        <time>2018-06-10T11:33:10Z</time>
      </trkpt>
      <trkpt lat="48.64163" lon="-2.41212">
        <ele>58.092748578361</ele>
        <time>2018-06-10T11:33:19Z</time>
      </trkpt>
      <trkpt lat="48.64167" lon="-2.41225">
        <ele>57.518295150066</ele>
        <time>2018-06-10T11:33:28Z</time>
      </trkpt>
      <trkpt lat="48.64167" lon="-2.41243">
        <ele>56.792776898835</ele>
        <time>2018-06-10T11:33:37Z</time>
      </trkpt>
      <trkpt lat="48.64168" lon="-2.41257">
        <ele>55.937165720071</ele>
        <time>2018-06-10T11:33:46Z</time>
      </trkpt>
      <trkpt lat="48.64168" lon="-2.41272">
        <ele>56.408664773819</ele>
        <time>2018-06-10T11:33:54Z</time>
      </trkpt>
      <trkpt lat="48.64168" lon="-2.41287">
        <ele>56.644805115182</ele>
        <time>2018-06-10T11:34:04Z</time>
      </trkpt>
      <trkpt lat="48.64167" lon="-2.41301">
        <ele>56.3169293453</ele>
        <time>2018-06-10T11:34:13Z</time>
      </trkpt>
      <trkpt lat="48.64167" lon="-2.41316">
        <ele>56.804249428737</ele>
        <time>2018-06-10T11:34:21Z</time>
      </trkpt>
      <trkpt lat="48.64167" lon="-2.4133">
        <ele>56.746212541265</ele>
        <time>2018-06-10T11:34:30Z</time>
      </trkpt>
      <trkpt lat="48.64167" lon="-2.41347">
        <ele>56.705312784217</ele>
        <time>2018-06-10T11:34:39Z</time>
      </trkpt>
      <trkpt lat="48.64168" lon="-2.41361">
        <ele>56.262696577841</ele>
        <time>2018-06-10T11:34:47Z</time>
      </trkpt>
      <trkpt lat="48.64171" lon="-2.41375">
        <ele>56.402382951639</ele>
        <time>2018-06-10T11:34:57Z</time>
      </trkpt>
      <trkpt lat="48.64173" lon="-2.41391">
        <ele>57.061837453641</ele>
        <time>2018-06-10T11:35:05Z</time>
      </trkpt>
      <trkpt lat="48.64174" lon="-2.41406">
        <ele>58.016560640885</ele>
        <time>2018-06-10T11:35:14Z</time>
      </trkpt>
      <trkpt lat="48.64172" lon="-2.4142">
        <ele>58.347524134328</ele>
        <time>2018-06-10T11:35:21Z</time>
      </trkpt>
      <trkpt lat="48.64171" lon="-2.41434">
        <ele>57.635333062403</ele>
        <time>2018-06-10T11:35:30Z</time>
      </trkpt>
      <trkpt lat="48.64173" lon="-2.41448">
        <ele>57.934452549052</ele>
        <time>2018-06-10T11:35:38Z</time>
      </trkpt>
      <trkpt lat="48.64176" lon="-2.41463">
        <ele>58.610847660127</ele>
        <time>2018-06-10T11:35:47Z</time>
      </trkpt>
      <trkpt lat="48.64176" lon="-2.41479">
        <ele>58.017111423509</ele>
        <time>2018-06-10T11:35:54Z</time>
      </trkpt>
      <trkpt lat="48.64178" lon="-2.41493">
        <ele>57.192349555405</ele>
        <time>2018-06-10T11:36:05Z</time>
      </trkpt>
      <trkpt lat="48.64181" lon="-2.41508">
        <ele>57.03288401366</ele>
        <time>2018-06-10T11:36:12Z</time>
      </trkpt>
      <trkpt lat="48.64184" lon="-2.41524">
        <ele>56.759894926592</ele>
        <time>2018-06-10T11:36:21Z</time>
      </trkpt>
      <trkpt lat="48.64186" lon="-2.41544">
        <ele>55.374715818005</ele>
        <time>2018-06-10T11:36:34Z</time>
      </trkpt>
      <trkpt lat="48.64188" lon="-2.41558">
        <ele>55.533910127191</ele>
        <time>2018-06-10T11:36:42Z</time>
      </trkpt>
      <trkpt lat="48.6419" lon="-2.41571">
        <ele>54.889264876919</ele>
        <time>2018-06-10T11:36:52Z</time>
      </trkpt>
      <trkpt lat="48.64194" lon="-2.41585">
        <ele>54.424942100792</ele>
        <time>2018-06-10T11:37:02Z</time>
      </trkpt>
      <trkpt lat="48.64197" lon="-2.41599">
        <ele>55.563286445348</ele>
        <time>2018-06-10T11:37:12Z</time>
      </trkpt>
      <trkpt lat="48.64199" lon="-2.41615">
        <ele>55.641841150604</ele>
        <time>2018-06-10T11:37:24Z</time>
      </trkpt>
      <trkpt lat="48.64202" lon="-2.41629">
        <ele>54.177671785682</ele>
        <time>2018-06-10T11:37:34Z</time>
      </trkpt>
      <trkpt lat="48.64206" lon="-2.41641">
        <ele>54.119735498664</ele>
        <time>2018-06-10T11:37:45Z</time>
      </trkpt>
      <trkpt lat="48.6421" lon="-2.41655">
        <ele>53.311148503238</ele>
        <time>2018-06-10T11:37:53Z</time>
      </trkpt>
      <trkpt lat="48.64216" lon="-2.41667">
        <ele>53.156099892297</ele>
        <time>2018-06-10T11:38:04Z</time>
      </trkpt>
      <trkpt lat="48.64223" lon="-2.41677">
        <ele>55.039440756807</ele>
        <time>2018-06-10T11:38:28Z</time>
      </trkpt>
      <trkpt lat="48.64229" lon="-2.41688">
        <ele>54.283763197078</ele>
        <time>2018-06-10T11:41:17Z</time>
      </trkpt>
      <trkpt lat="48.64233" lon="-2.417">
        <ele>53.388663361423</ele>
        <time>2018-06-10T11:41:27Z</time>
      </trkpt>
      <trkpt lat="48.64238" lon="-2.41712">
        <ele>52.134995286888</ele>
        <time>2018-06-10T11:41:38Z</time>
      </trkpt>
      <trkpt lat="48.64244" lon="-2.41723">
        <ele>52.92426561849</ele>
        <time>2018-06-10T11:41:47Z</time>
      </trkpt>
      <trkpt lat="48.64252" lon="-2.41733">
        <ele>55.912449324149</ele>
        <time>2018-06-10T11:41:59Z</time>
      </trkpt>
      <trkpt lat="48.64258" lon="-2.41749">
        <ele>59.90226887526</ele>
        <time>2018-06-10T11:42:09Z</time>
      </trkpt>
      <trkpt lat="48.64264" lon="-2.41765">
        <ele>57.002138222242</ele>
        <time>2018-06-10T11:42:20Z</time>
      </trkpt>
      <trkpt lat="48.64271" lon="-2.41779">
        <ele>56.521818008749</ele>
        <time>2018-06-10T11:42:30Z</time>
      </trkpt>
      <trkpt lat="48.64275" lon="-2.41792">
        <ele>56.376426568029</ele>
        <time>2018-06-10T11:42:39Z</time>
      </trkpt>
      <trkpt lat="48.6428" lon="-2.41803">
        <ele>55.67162663455</ele>
        <time>2018-06-10T11:42:49Z</time>
      </trkpt>
      <trkpt lat="48.64289" lon="-2.41815">
        <ele>54.798385733911</ele>
        <time>2018-06-10T11:43:01Z</time>
      </trkpt>
      <trkpt lat="48.64297" lon="-2.41823">
        <ele>51.999258029574</ele>
        <time>2018-06-10T11:43:49Z</time>
      </trkpt>
      <trkpt lat="48.64303" lon="-2.41833">
        <ele>54.469917095288</ele>
        <time>2018-06-10T11:44:37Z</time>
      </trkpt>
      <trkpt lat="48.64307" lon="-2.41845">
        <ele>50.521436193282</ele>
        <time>2018-06-10T11:46:59Z</time>
      </trkpt>
      <trkpt lat="48.64316" lon="-2.41851">
        <ele>48.825326856066</ele>
        <time>2018-06-10T11:47:33Z</time>
      </trkpt>
      <trkpt lat="48.64325" lon="-2.41848">
        <ele>50.033714146848</ele>
        <time>2018-06-10T11:47:43Z</time>
      </trkpt>
      <trkpt lat="48.64334" lon="-2.41847">
        <ele>51.505341371611</ele>
        <time>2018-06-10T11:47:52Z</time>
      </trkpt>
      <trkpt lat="48.64345" lon="-2.41846">
        <ele>52.997390133209</ele>
        <time>2018-06-10T11:48:05Z</time>
      </trkpt>
      <trkpt lat="48.64354" lon="-2.41847">
        <ele>53.931589524383</ele>
        <time>2018-06-10T11:48:17Z</time>
      </trkpt>
      <trkpt lat="48.64364" lon="-2.41852">
        <ele>53.21936102654</ele>
        <time>2018-06-10T11:48:30Z</time>
      </trkpt>
      <trkpt lat="48.64373" lon="-2.41856">
        <ele>52.824198701895</ele>
        <time>2018-06-10T11:48:41Z</time>
      </trkpt>
      <trkpt lat="48.64382" lon="-2.41863">
        <ele>54.14018005684</ele>
        <time>2018-06-10T11:48:55Z</time>
      </trkpt>
      <trkpt lat="48.64392" lon="-2.41868">
        <ele>54.33840559715</ele>
        <time>2018-06-10T11:49:07Z</time>
      </trkpt>
      <trkpt lat="48.64402" lon="-2.4187">
        <ele>53.387091415325</ele>
        <time>2018-06-10T11:49:21Z</time>
      </trkpt>
      <trkpt lat="48.6441" lon="-2.41875">
        <ele>54.340958858718</ele>
        <time>2018-06-10T11:49:36Z</time>
      </trkpt>
      <trkpt lat="48.64417" lon="-2.41886">
        <ele>54.775759033233</ele>
        <time>2018-06-10T11:49:49Z</time>
      </trkpt>
      <trkpt lat="48.64424" lon="-2.41897">
        <ele>55.840855669747</ele>
        <time>2018-06-10T11:50:04Z</time>
      </trkpt>
      <trkpt lat="48.64435" lon="-2.41898">
        <ele>54.827987002981</ele>
        <time>2018-06-10T11:57:27Z</time>
      </trkpt>
      <trkpt lat="48.64445" lon="-2.41903">
        <ele>52.680180433255</ele>
        <time>2018-06-10T11:57:40Z</time>
      </trkpt>
      <trkpt lat="48.64454" lon="-2.41906">
        <ele>52.68288015669</ele>
        <time>2018-06-10T11:57:50Z</time>
      </trkpt>
      <trkpt lat="48.64463" lon="-2.41907">
        <ele>54.652281421557</ele>
        <time>2018-06-10T11:58:02Z</time>
      </trkpt>
      <trkpt lat="48.64473" lon="-2.41909">
        <ele>53.859155316749</ele>
        <time>2018-06-10T11:58:12Z</time>
      </trkpt>
      <trkpt lat="48.64482" lon="-2.41914">
        <ele>54.047788040426</ele>
        <time>2018-06-10T11:58:22Z</time>
      </trkpt>
      <trkpt lat="48.64493" lon="-2.4192">
        <ele>53.24599810091</ele>
        <time>2018-06-10T11:58:36Z</time>
      </trkpt>
      <trkpt lat="48.64503" lon="-2.41927">
        <ele>52.535484549093</ele>
        <time>2018-06-10T11:58:47Z</time>
      </trkpt>
      <trkpt lat="48.64511" lon="-2.41933">
        <ele>51.670199657871</ele>
        <time>2018-06-10T11:58:58Z</time>
      </trkpt>
      <trkpt lat="48.6452" lon="-2.41935">
        <ele>54.457143670846</ele>
        <time>2018-06-10T11:59:22Z</time>
      </trkpt>
      <trkpt lat="48.64527" lon="-2.41945">
        <ele>51.219896534889</ele>
        <time>2018-06-10T11:59:31Z</time>
      </trkpt>
      <trkpt lat="48.64535" lon="-2.41954">
        <ele>49.312155941834</ele>
        <time>2018-06-10T11:59:40Z</time>
      </trkpt>
      <trkpt lat="48.64542" lon="-2.41961">
        <ele>49.712017861306</ele>
        <time>2018-06-10T11:59:48Z</time>
      </trkpt>
      <trkpt lat="48.6455" lon="-2.41971">
        <ele>50.663947838094</ele>
        <time>2018-06-10T11:59:56Z</time>
      </trkpt>
      <trkpt lat="48.64559" lon="-2.41978">
        <ele>53.345578973208</ele>
        <time>2018-06-10T12:00:04Z</time>
      </trkpt>
      <trkpt lat="48.64566" lon="-2.41987">
        <ele>53.032921775961</ele>
        <time>2018-06-10T12:00:19Z</time>
      </trkpt>
      <trkpt lat="48.64574" lon="-2.41995">
        <ele>53.743371841748</ele>
        <time>2018-06-10T12:00:28Z</time>
      </trkpt>
      <trkpt lat="48.64583" lon="-2.42003">
        <ele>54.232002783247</ele>
        <time>2018-06-10T12:00:36Z</time>
      </trkpt>
      <trkpt lat="48.64591" lon="-2.42011">
        <ele>55.743286358463</ele>
        <time>2018-06-10T12:00:44Z</time>
      </trkpt>
      <trkpt lat="48.64599" lon="-2.42018">
        <ele>57.850637495825</ele>
        <time>2018-06-10T12:00:55Z</time>
      </trkpt>
      <trkpt lat="48.64606" lon="-2.42028">
        <ele>58.179674984555</ele>
        <time>2018-06-10T12:01:02Z</time>
      </trkpt>
      <trkpt lat="48.64612" lon="-2.42039">
        <ele>55.849104704654</ele>
        <time>2018-06-10T12:01:11Z</time>
      </trkpt>
      <trkpt lat="48.6462" lon="-2.42048">
        <ele>55.520005479224</ele>
        <time>2018-06-10T12:01:20Z</time>
      </trkpt>
      <trkpt lat="48.64627" lon="-2.42057">
        <ele>53.520481906556</ele>
        <time>2018-06-10T12:02:01Z</time>
      </trkpt>
      <trkpt lat="48.64636" lon="-2.42062">
        <ele>65.383347016772</ele>
        <time>2018-06-10T12:06:49Z</time>
      </trkpt>
      <trkpt lat="48.64641" lon="-2.42074">
        <ele>55.562950100261</ele>
        <time>2018-06-10T12:07:07Z</time>
      </trkpt>
      <trkpt lat="48.6465" lon="-2.42078">
        <ele>57.30305968747</ele>
        <time>2018-06-10T12:07:14Z</time>
      </trkpt>
      <trkpt lat="48.6466" lon="-2.42087">
        <ele>58.628257201361</ele>
        <time>2018-06-10T12:07:24Z</time>
      </trkpt>
      <trkpt lat="48.64666" lon="-2.42098">
        <ele>59.978556249874</ele>
        <time>2018-06-10T12:07:34Z</time>
      </trkpt>
      <trkpt lat="48.64675" lon="-2.42107">
        <ele>62.342064089579</ele>
        <time>2018-06-10T12:08:03Z</time>
      </trkpt>
      <trkpt lat="48.64682" lon="-2.42116">
        <ele>62.838353686073</ele>
        <time>2018-06-10T12:08:13Z</time>
      </trkpt>
      <trkpt lat="48.64687" lon="-2.42131">
        <ele>60.473588894926</ele>
        <time>2018-06-10T12:08:22Z</time>
      </trkpt>
      <trkpt lat="48.64692" lon="-2.42143">
        <ele>59.661518632183</ele>
        <time>2018-06-10T12:08:31Z</time>
      </trkpt>
      <trkpt lat="48.64699" lon="-2.42154">
        <ele>60.332590064786</ele>
        <time>2018-06-10T12:08:37Z</time>
      </trkpt>
      <trkpt lat="48.64702" lon="-2.42167">
        <ele>61.155614262037</ele>
        <time>2018-06-10T12:08:46Z</time>
      </trkpt>
      <trkpt lat="48.64702" lon="-2.42182">
        <ele>59.891806912741</ele>
        <time>2018-06-10T12:08:57Z</time>
      </trkpt>
      <trkpt lat="48.64703" lon="-2.42195">
        <ele>58.873192394262</ele>
        <time>2018-06-10T12:09:09Z</time>
      </trkpt>
      <trkpt lat="48.64711" lon="-2.42205">
        <ele>61.579437670889</ele>
        <time>2018-06-10T12:09:17Z</time>
      </trkpt>
      <trkpt lat="48.64721" lon="-2.42212">
        <ele>61.809588119226</ele>
        <time>2018-06-10T12:09:25Z</time>
      </trkpt>
      <trkpt lat="48.6473" lon="-2.42217">
        <ele>60.267054614866</ele>
        <time>2018-06-10T12:09:32Z</time>
      </trkpt>
      <trkpt lat="48.64739" lon="-2.4222">
        <ele>59.45341813582</ele>
        <time>2018-06-10T12:09:41Z</time>
      </trkpt>
      <trkpt lat="48.64747" lon="-2.42227">
        <ele>57.683366093151</ele>
        <time>2018-06-10T12:09:48Z</time>
      </trkpt>
      <trkpt lat="48.64754" lon="-2.42236">
        <ele>57.316795695105</ele>
        <time>2018-06-10T12:10:00Z</time>
      </trkpt>
      <trkpt lat="48.64759" lon="-2.42248">
        <ele>59.521022782305</ele>
        <time>2018-06-10T12:10:56Z</time>
      </trkpt>
      <trkpt lat="48.6476" lon="-2.42261">
        <ele>59.111209501166</ele>
        <time>2018-06-10T12:11:04Z</time>
      </trkpt>
      <trkpt lat="48.64763" lon="-2.42275">
        <ele>58.352403875752</ele>
        <time>2018-06-10T12:11:12Z</time>
      </trkpt>
      <trkpt lat="48.64766" lon="-2.42289">
        <ele>58.696320750483</ele>
        <time>2018-06-10T12:11:23Z</time>
      </trkpt>
      <trkpt lat="48.64769" lon="-2.42302">
        <ele>58.426996628583</ele>
        <time>2018-06-10T12:11:34Z</time>
      </trkpt>
      <trkpt lat="48.64772" lon="-2.42317">
        <ele>57.696598442219</ele>
        <time>2018-06-10T12:11:43Z</time>
      </trkpt>
      <trkpt lat="48.64775" lon="-2.4233">
        <ele>57.006018521539</ele>
        <time>2018-06-10T12:11:50Z</time>
      </trkpt>
      <trkpt lat="48.64778" lon="-2.42344">
        <ele>56.275860273955</ele>
        <time>2018-06-10T12:11:58Z</time>
      </trkpt>
      <trkpt lat="48.64779" lon="-2.42359">
        <ele>54.521846357524</ele>
        <time>2018-06-10T12:12:29Z</time>
      </trkpt>
      <trkpt lat="48.64781" lon="-2.42374">
        <ele>54.733323214081</ele>
        <time>2018-06-10T12:12:38Z</time>
      </trkpt>
      <trkpt lat="48.64782" lon="-2.42388">
        <ele>53.915023892743</ele>
        <time>2018-06-10T12:12:50Z</time>
      </trkpt>
      <trkpt lat="48.64786" lon="-2.42403">
        <ele>52.523472445594</ele>
        <time>2018-06-10T12:12:59Z</time>
      </trkpt>
      <trkpt lat="48.64792" lon="-2.42413">
        <ele>53.331627064577</ele>
        <time>2018-06-10T12:13:08Z</time>
      </trkpt>
      <trkpt lat="48.64795" lon="-2.42427">
        <ele>55.083489739175</ele>
        <time>2018-06-10T12:13:18Z</time>
      </trkpt>
      <trkpt lat="48.64798" lon="-2.4244">
        <ele>55.364821508641</ele>
        <time>2018-06-10T12:15:50Z</time>
      </trkpt>
      <trkpt lat="48.64801" lon="-2.42454">
        <ele>56.977140359778</ele>
        <time>2018-06-10T12:15:58Z</time>
      </trkpt>
      <trkpt lat="48.64805" lon="-2.42468">
        <ele>56.383734499765</ele>
        <time>2018-06-10T12:16:07Z</time>
      </trkpt>
      <trkpt lat="48.64808" lon="-2.42482">
        <ele>55.32723410213</ele>
        <time>2018-06-10T12:16:15Z</time>
      </trkpt>
      <trkpt lat="48.64812" lon="-2.42495">
        <ele>53.882439184412</ele>
        <time>2018-06-10T12:16:24Z</time>
      </trkpt>
      <trkpt lat="48.64804" lon="-2.42483">
        <ele>54.200115284351</ele>
        <time>2018-06-10T12:19:26Z</time>
      </trkpt>
      <trkpt lat="48.64809" lon="-2.42471">
        <ele>55.881096755341</ele>
        <time>2018-06-10T12:21:21Z</time>
      </trkpt>
      <trkpt lat="48.64809" lon="-2.42486">
        <ele>62.740836739249</ele>
        <time>2018-06-10T12:22:56Z</time>
      </trkpt>
      <trkpt lat="48.64815" lon="-2.42498">
        <ele>63.505366566085</ele>
        <time>2018-06-10T12:23:06Z</time>
      </trkpt>
      <trkpt lat="48.64817" lon="-2.42512">
        <ele>61.750245496477</ele>
        <time>2018-06-10T12:23:16Z</time>
      </trkpt>
      <trkpt lat="48.6482" lon="-2.42526">
        <ele>60.365149991535</ele>
        <time>2018-06-10T12:23:25Z</time>
      </trkpt>
      <trkpt lat="48.64823" lon="-2.42543">
        <ele>60.021303611675</ele>
        <time>2018-06-10T12:23:36Z</time>
      </trkpt>
      <trkpt lat="48.64824" lon="-2.42558">
        <ele>58.929930316366</ele>
        <time>2018-06-10T12:23:45Z</time>
      </trkpt>
      <trkpt lat="48.64825" lon="-2.42573">
        <ele>57.854523589681</ele>
        <time>2018-06-10T12:23:56Z</time>
      </trkpt>
      <trkpt lat="48.64827" lon="-2.42588">
        <ele>57.785800535684</ele>
        <time>2018-06-10T12:24:05Z</time>
      </trkpt>
      <trkpt lat="48.64829" lon="-2.42603">
        <ele>59.42754441893</ele>
        <time>2018-06-10T12:24:20Z</time>
      </trkpt>
      <trkpt lat="48.64833" lon="-2.42616">
        <ele>57.387645455584</ele>
        <time>2018-06-10T12:24:27Z</time>
      </trkpt>
      <trkpt lat="48.64833" lon="-2.42631">
        <ele>55.300855370912</ele>
        <time>2018-06-10T12:24:36Z</time>
      </trkpt>
      <trkpt lat="48.64829" lon="-2.42649">
        <ele>53.390338382441</ele>
        <time>2018-06-10T12:24:47Z</time>
      </trkpt>
      <trkpt lat="48.64829" lon="-2.42663">
        <ele>49.935723255518</ele>
        <time>2018-06-10T12:24:54Z</time>
      </trkpt>
      <trkpt lat="48.64833" lon="-2.42675">
        <ele>49.598993234462</ele>
        <time>2018-06-10T12:25:01Z</time>
      </trkpt>
      <trkpt lat="48.64836" lon="-2.42688">
        <ele>46.921746117495</ele>
        <time>2018-06-10T12:25:09Z</time>
      </trkpt>
      <trkpt lat="48.64841" lon="-2.42701">
        <ele>44.793730083008</ele>
        <time>2018-06-10T12:25:17Z</time>
      </trkpt>
      <trkpt lat="48.64847" lon="-2.42714">
        <ele>45.483201783655</ele>
        <time>2018-06-10T12:25:27Z</time>
      </trkpt>
      <trkpt lat="48.64853" lon="-2.42727">
        <ele>48.947368229019</ele>
        <time>2018-06-10T12:25:36Z</time>
      </trkpt>
      <trkpt lat="48.64859" lon="-2.42739">
        <ele>50.266100856377</ele>
        <time>2018-06-10T12:25:45Z</time>
      </trkpt>
      <trkpt lat="48.64866" lon="-2.42749">
        <ele>51.551044469172</ele>
        <time>2018-06-10T12:25:53Z</time>
      </trkpt>
      <trkpt lat="48.64871" lon="-2.42765">
        <ele>53.666776093456</ele>
        <time>2018-06-10T12:26:03Z</time>
      </trkpt>
      <trkpt lat="48.6487" lon="-2.42778">
        <ele>56.058597071779</ele>
        <time>2018-06-10T12:26:11Z</time>
      </trkpt>
      <trkpt lat="48.64869" lon="-2.42792">
        <ele>56.778729950541</ele>
        <time>2018-06-10T12:26:21Z</time>
      </trkpt>
      <trkpt lat="48.64867" lon="-2.42805">
        <ele>57.665973887767</ele>
        <time>2018-06-10T12:26:30Z</time>
      </trkpt>
      <trkpt lat="48.64868" lon="-2.42821">
        <ele>57.434306683357</ele>
        <time>2018-06-10T12:26:37Z</time>
      </trkpt>
      <trkpt lat="48.64872" lon="-2.42836">
        <ele>57.233149053369</ele>
        <time>2018-06-10T12:26:46Z</time>
      </trkpt>
      <trkpt lat="48.64873" lon="-2.42851">
        <ele>57.031576307109</ele>
        <time>2018-06-10T12:26:56Z</time>
      </trkpt>
      <trkpt lat="48.64869" lon="-2.42867">
        <ele>57.636481210949</ele>
        <time>2018-06-10T12:27:03Z</time>
      </trkpt>
      <trkpt lat="48.64871" lon="-2.4288">
        <ele>55.728575470633</ele>
        <time>2018-06-10T12:27:11Z</time>
      </trkpt>
      <trkpt lat="48.64877" lon="-2.42891">
        <ele>52.364293105084</ele>
        <time>2018-06-10T12:27:17Z</time>
      </trkpt>
      <trkpt lat="48.64879" lon="-2.42905">
        <ele>49.584845989785</ele>
        <time>2018-06-10T12:27:28Z</time>
      </trkpt>
      <trkpt lat="48.64881" lon="-2.4292">
        <ele>47.657095432711</ele>
        <time>2018-06-10T12:27:35Z</time>
      </trkpt>
      <trkpt lat="48.64887" lon="-2.42929">
        <ele>50.211870144858</ele>
        <time>2018-06-10T12:27:42Z</time>
      </trkpt>
      <trkpt lat="48.64891" lon="-2.42943">
        <ele>53.397003261469</ele>
        <time>2018-06-10T12:27:51Z</time>
      </trkpt>
      <trkpt lat="48.64893" lon="-2.42959">
        <ele>53.361982290067</ele>
        <time>2018-06-10T12:28:00Z</time>
      </trkpt>
      <trkpt lat="48.64895" lon="-2.42972">
        <ele>52.987533411029</ele>
        <time>2018-06-10T12:28:07Z</time>
      </trkpt>
      <trkpt lat="48.64899" lon="-2.42987">
        <ele>53.461062795352</ele>
        <time>2018-06-10T12:28:16Z</time>
      </trkpt>
      <trkpt lat="48.64902" lon="-2.43001">
        <ele>53.417498334909</ele>
        <time>2018-06-10T12:28:24Z</time>
      </trkpt>
      <trkpt lat="48.64902" lon="-2.43015">
        <ele>53.648284796149</ele>
        <time>2018-06-10T12:28:33Z</time>
      </trkpt>
      <trkpt lat="48.64907" lon="-2.4303">
        <ele>55.917496314482</ele>
        <time>2018-06-10T12:28:42Z</time>
      </trkpt>
      <trkpt lat="48.6491" lon="-2.43043">
        <ele>56.956674472443</ele>
        <time>2018-06-10T12:28:48Z</time>
      </trkpt>
      <trkpt lat="48.64912" lon="-2.43057">
        <ele>56.782406002006</ele>
        <time>2018-06-10T12:28:56Z</time>
      </trkpt>
      <trkpt lat="48.64914" lon="-2.43071">
        <ele>54.616590274881</ele>
        <time>2018-06-10T12:29:04Z</time>
      </trkpt>
      <trkpt lat="48.6492" lon="-2.43084">
        <ele>53.841081806885</ele>
        <time>2018-06-10T12:29:17Z</time>
      </trkpt>
      <trkpt lat="48.64917" lon="-2.43097">
        <ele>55.832413632254</ele>
        <time>2018-06-10T12:29:27Z</time>
      </trkpt>
      <trkpt lat="48.64915" lon="-2.43111">
        <ele>58.701407782493</ele>
        <time>2018-06-10T12:29:39Z</time>
      </trkpt>
      <trkpt lat="48.64909" lon="-2.43122">
        <ele>59.225861749653</ele>
        <time>2018-06-10T12:29:51Z</time>
      </trkpt>
      <trkpt lat="48.649" lon="-2.43126">
        <ele>55.561177841935</ele>
        <time>2018-06-10T12:30:15Z</time>
      </trkpt>
      <trkpt lat="48.64899" lon="-2.43141">
        <ele>52.832347143632</ele>
        <time>2018-06-10T12:30:26Z</time>
      </trkpt>
      <trkpt lat="48.64898" lon="-2.43155">
        <ele>50.552808296979</ele>
        <time>2018-06-10T12:30:33Z</time>
      </trkpt>
      <trkpt lat="48.64911" lon="-2.43164">
        <ele>53.452788718764</ele>
        <time>2018-06-10T12:30:41Z</time>
      </trkpt>
      <trkpt lat="48.6492" lon="-2.43171">
        <ele>57.972282368259</ele>
        <time>2018-06-10T12:30:47Z</time>
      </trkpt>
      <trkpt lat="48.64927" lon="-2.4318">
        <ele>64.468611149707</ele>
        <time>2018-06-10T12:31:11Z</time>
      </trkpt>
      <trkpt lat="48.64936" lon="-2.4319">
        <ele>66.525306473838</ele>
        <time>2018-06-10T12:31:28Z</time>
      </trkpt>
      <trkpt lat="48.64944" lon="-2.43199">
        <ele>68.810537298603</ele>
        <time>2018-06-10T12:31:32Z</time>
      </trkpt>
      <trkpt lat="48.64953" lon="-2.43211">
        <ele>71.186580684215</ele>
        <time>2018-06-10T12:31:37Z</time>
      </trkpt>
      <trkpt lat="48.64957" lon="-2.43223">
        <ele>73.502300572875</ele>
        <time>2018-06-10T12:31:46Z</time>
      </trkpt>
      <trkpt lat="48.64968" lon="-2.43236">
        <ele>74.119116800303</ele>
        <time>2018-06-10T12:31:55Z</time>
      </trkpt>
      <trkpt lat="48.64976" lon="-2.43241">
        <ele>73.59539670831</ele>
        <time>2018-06-10T12:32:02Z</time>
      </trkpt>
      <trkpt lat="48.64981" lon="-2.43253">
        <ele>74.048403798194</ele>
        <time>2018-06-10T12:32:43Z</time>
      </trkpt>
      <trkpt lat="48.64984" lon="-2.43266">
        <ele>64.427944833973</ele>
        <time>2018-06-10T12:32:56Z</time>
      </trkpt>
      <trkpt lat="48.64992" lon="-2.43277">
        <ele>59.429200411349</ele>
        <time>2018-06-10T12:33:10Z</time>
      </trkpt>
      <trkpt lat="48.64999" lon="-2.43286">
        <ele>61.064254993392</ele>
        <time>2018-06-10T12:33:28Z</time>
      </trkpt>
      <trkpt lat="48.65007" lon="-2.43294">
        <ele>62.362963179133</ele>
        <time>2018-06-10T12:33:35Z</time>
      </trkpt>
      <trkpt lat="48.65011" lon="-2.43308">
        <ele>59.486269459273</ele>
        <time>2018-06-10T12:33:45Z</time>
      </trkpt>
      <trkpt lat="48.65019" lon="-2.43316">
        <ele>59.048930715729</ele>
        <time>2018-06-10T12:33:55Z</time>
      </trkpt>
      <trkpt lat="48.65026" lon="-2.43328">
        <ele>59.098394093474</ele>
        <time>2018-06-10T12:34:04Z</time>
      </trkpt>
      <trkpt lat="48.65034" lon="-2.43339">
        <ele>59.289220567789</ele>
        <time>2018-06-10T12:34:12Z</time>
      </trkpt>
      <trkpt lat="48.65041" lon="-2.43349">
        <ele>59.737942082559</ele>
        <time>2018-06-10T12:34:22Z</time>
      </trkpt>
      <trkpt lat="48.65047" lon="-2.43361">
        <ele>57.422605345499</ele>
        <time>2018-06-10T12:34:30Z</time>
      </trkpt>
      <trkpt lat="48.65051" lon="-2.43374">
        <ele>54.392431719484</ele>
        <time>2018-06-10T12:34:37Z</time>
      </trkpt>
      <trkpt lat="48.65057" lon="-2.43385">
        <ele>56.147947993743</ele>
        <time>2018-06-10T12:34:47Z</time>
      </trkpt>
      <trkpt lat="48.65062" lon="-2.43397">
        <ele>58.310035989045</ele>
        <time>2018-06-10T12:34:55Z</time>
      </trkpt>
      <trkpt lat="48.65066" lon="-2.4341">
        <ele>60.107935837849</ele>
        <time>2018-06-10T12:35:04Z</time>
      </trkpt>
      <trkpt lat="48.65072" lon="-2.43421">
        <ele>59.75367504642</ele>
        <time>2018-06-10T12:35:11Z</time>
      </trkpt>
      <trkpt lat="48.65077" lon="-2.43434">
        <ele>58.741306770465</ele>
        <time>2018-06-10T12:35:20Z</time>
      </trkpt>
      <trkpt lat="48.65084" lon="-2.43443">
        <ele>58.189398941549</ele>
        <time>2018-06-10T12:35:28Z</time>
      </trkpt>
      <trkpt lat="48.6509" lon="-2.43454">
        <ele>58.036990580443</ele>
        <time>2018-06-10T12:35:35Z</time>
      </trkpt>
      <trkpt lat="48.65097" lon="-2.43464">
        <ele>57.400411110258</ele>
        <time>2018-06-10T12:35:45Z</time>
      </trkpt>
      <trkpt lat="48.65105" lon="-2.43473">
        <ele>55.714752891573</ele>
        <time>2018-06-10T12:35:54Z</time>
      </trkpt>
      <trkpt lat="48.65112" lon="-2.43483">
        <ele>57.001665903166</ele>
        <time>2018-06-10T12:36:02Z</time>
      </trkpt>
      <trkpt lat="48.6512" lon="-2.43492">
        <ele>58.047731771219</ele>
        <time>2018-06-10T12:36:11Z</time>
      </trkpt>
      <trkpt lat="48.65127" lon="-2.43502">
        <ele>59.261397075421</ele>
        <time>2018-06-10T12:36:20Z</time>
      </trkpt>
      <trkpt lat="48.65133" lon="-2.43515">
        <ele>60.477516925243</ele>
        <time>2018-06-10T12:36:29Z</time>
      </trkpt>
      <trkpt lat="48.65138" lon="-2.43527">
        <ele>60.695751324693</ele>
        <time>2018-06-10T12:36:37Z</time>
      </trkpt>
      <trkpt lat="48.65145" lon="-2.43537">
        <ele>62.022950610737</ele>
        <time>2018-06-10T12:36:46Z</time>
      </trkpt>
      <trkpt lat="48.65151" lon="-2.43548">
        <ele>62.900900552891</ele>
        <time>2018-06-10T12:36:55Z</time>
      </trkpt>
      <trkpt lat="48.65158" lon="-2.43556">
        <ele>63.068303412878</ele>
        <time>2018-06-10T12:37:00Z</time>
      </trkpt>
      <trkpt lat="48.65165" lon="-2.43567">
        <ele>60.183881328328</ele>
        <time>2018-06-10T12:37:08Z</time>
      </trkpt>
      <trkpt lat="48.65171" lon="-2.43579">
        <ele>59.109482324386</ele>
        <time>2018-06-10T12:37:16Z</time>
      </trkpt>
      <trkpt lat="48.65175" lon="-2.43591">
        <ele>58.678901045144</ele>
        <time>2018-06-10T12:37:25Z</time>
      </trkpt>
      <trkpt lat="48.65182" lon="-2.43602">
        <ele>58.598586795843</ele>
        <time>2018-06-10T12:37:32Z</time>
      </trkpt>
      <trkpt lat="48.65189" lon="-2.43613">
        <ele>58.430670718606</ele>
        <time>2018-06-10T12:37:40Z</time>
      </trkpt>
      <trkpt lat="48.65194" lon="-2.43625">
        <ele>58.958502062015</ele>
        <time>2018-06-10T12:37:48Z</time>
      </trkpt>
      <trkpt lat="48.65201" lon="-2.43634">
        <ele>59.299523644066</ele>
        <time>2018-06-10T12:37:56Z</time>
      </trkpt>
      <trkpt lat="48.65208" lon="-2.43645">
        <ele>59.481877132702</ele>
        <time>2018-06-10T12:38:05Z</time>
      </trkpt>
      <trkpt lat="48.65214" lon="-2.43658">
        <ele>59.749272347367</ele>
        <time>2018-06-10T12:38:14Z</time>
      </trkpt>
      <trkpt lat="48.6522" lon="-2.4367">
        <ele>58.598372762234</ele>
        <time>2018-06-10T12:38:22Z</time>
      </trkpt>
      <trkpt lat="48.65227" lon="-2.43681">
        <ele>57.963930105939</ele>
        <time>2018-06-10T12:38:31Z</time>
      </trkpt>
      <trkpt lat="48.65232" lon="-2.43696">
        <ele>59.447893748264</ele>
        <time>2018-06-10T12:38:43Z</time>
      </trkpt>
      <trkpt lat="48.65236" lon="-2.43708">
        <ele>59.966982723887</ele>
        <time>2018-06-10T12:38:52Z</time>
      </trkpt>
      <trkpt lat="48.6524" lon="-2.43722">
        <ele>60.274849320453</ele>
        <time>2018-06-10T12:39:04Z</time>
      </trkpt>
      <trkpt lat="48.65244" lon="-2.43736">
        <ele>59.64747738248</ele>
        <time>2018-06-10T12:39:11Z</time>
      </trkpt>
      <trkpt lat="48.65247" lon="-2.43749">
        <ele>58.874386043885</ele>
        <time>2018-06-10T12:39:19Z</time>
      </trkpt>
      <trkpt lat="48.65248" lon="-2.43763">
        <ele>58.694109604765</ele>
        <time>2018-06-10T12:39:25Z</time>
      </trkpt>
      <trkpt lat="48.65253" lon="-2.43778">
        <ele>60.274547483334</ele>
        <time>2018-06-10T12:39:34Z</time>
      </trkpt>
      <trkpt lat="48.65251" lon="-2.43792">
        <ele>60.934587722212</ele>
        <time>2018-06-10T12:39:42Z</time>
      </trkpt>
      <trkpt lat="48.6525" lon="-2.43812">
        <ele>60.991957310243</ele>
        <time>2018-06-10T12:39:52Z</time>
      </trkpt>
      <trkpt lat="48.6525" lon="-2.43828">
        <ele>62.699534369359</ele>
        <time>2018-06-10T12:40:02Z</time>
      </trkpt>
      <trkpt lat="48.65244" lon="-2.43839">
        <ele>63.967003236139</ele>
        <time>2018-06-10T12:40:09Z</time>
      </trkpt>
      <trkpt lat="48.65235" lon="-2.43846">
        <ele>63.060375212021</ele>
        <time>2018-06-10T12:40:17Z</time>
      </trkpt>
      <trkpt lat="48.65228" lon="-2.43856">
        <ele>67.465585363102</ele>
        <time>2018-06-10T12:40:28Z</time>
      </trkpt>
      <trkpt lat="48.6522" lon="-2.43863">
        <ele>68.693373207251</ele>
        <time>2018-06-10T12:40:36Z</time>
      </trkpt>
      <trkpt lat="48.65209" lon="-2.43864">
        <ele>69.491151745964</ele>
        <time>2018-06-10T12:40:45Z</time>
      </trkpt>
      <trkpt lat="48.65201" lon="-2.43857">
        <ele>67.977455489618</ele>
        <time>2018-06-10T12:40:52Z</time>
      </trkpt>
      <trkpt lat="48.65193" lon="-2.43847">
        <ele>66.934612903854</ele>
        <time>2018-06-10T12:41:03Z</time>
      </trkpt>
      <trkpt lat="48.65185" lon="-2.43841">
        <ele>73.698400033393</ele>
        <time>2018-06-10T12:41:31Z</time>
      </trkpt>
      <trkpt lat="48.65174" lon="-2.43839">
        <ele>80.719634654559</ele>
        <time>2018-06-10T12:41:40Z</time>
      </trkpt>
      <trkpt lat="48.65165" lon="-2.43844">
        <ele>87.895299540713</ele>
        <time>2018-06-10T12:41:50Z</time>
      </trkpt>
      <trkpt lat="48.65169" lon="-2.43865">
        <ele>100.94799142093</ele>
        <time>2018-06-10T12:42:05Z</time>
      </trkpt>
      <trkpt lat="48.65176" lon="-2.43882">
        <ele>105.12902164831</ele>
        <time>2018-06-10T12:42:08Z</time>
      </trkpt>
      <trkpt lat="48.65177" lon="-2.43896">
        <ele>102.39618847645</ele>
        <time>2018-06-10T12:42:12Z</time>
      </trkpt>
      <trkpt lat="48.65172" lon="-2.43911">
        <ele>98.222510340135</ele>
        <time>2018-06-10T12:42:18Z</time>
      </trkpt>
      <trkpt lat="48.65168" lon="-2.43924">
        <ele>94.066450185662</ele>
        <time>2018-06-10T12:42:23Z</time>
      </trkpt>
      <trkpt lat="48.65162" lon="-2.43935">
        <ele>88.867637336258</ele>
        <time>2018-06-10T12:42:30Z</time>
      </trkpt>
      <trkpt lat="48.65169" lon="-2.43924">
        <ele>85.573575258909</ele>
        <time>2018-06-10T12:43:14Z</time>
      </trkpt>
      <trkpt lat="48.65164" lon="-2.4391">
        <ele>79.577306100881</ele>
        <time>2018-06-10T12:43:22Z</time>
      </trkpt>
      <trkpt lat="48.65164" lon="-2.43896">
        <ele>74.313542268866</ele>
        <time>2018-06-10T12:43:31Z</time>
      </trkpt>
      <trkpt lat="48.65168" lon="-2.43882">
        <ele>70.030458758913</ele>
        <time>2018-06-10T12:43:41Z</time>
      </trkpt>
      <trkpt lat="48.65171" lon="-2.43869">
        <ele>68.009080370674</ele>
        <time>2018-06-10T12:43:46Z</time>
      </trkpt>
      <trkpt lat="48.65179" lon="-2.43861">
        <ele>57.467451270949</ele>
        <time>2018-06-10T12:44:05Z</time>
      </trkpt>
      <trkpt lat="48.65187" lon="-2.43854">
        <ele>59.566580153065</ele>
        <time>2018-06-10T12:44:11Z</time>
      </trkpt>
      <trkpt lat="48.65194" lon="-2.43844">
        <ele>63.874501841379</ele>
        <time>2018-06-10T12:44:28Z</time>
      </trkpt>
    </trkseg>
  </trk>
</gpx>